<?xml version="1.0" encoding="UTF-8" standalone="no" ?>
<gpx xmlns="http://www.topografix.com/GPX/1/1" xmlns:xsi="http://www.w3.org/2001/XMLSchema-instance" xsi:schemaLocation="http://www.topografix.com/GPX/1/1 http://www.topografix.com/GPX/1/1/gpx.xsd" version="1.1" creator="VisuGPX - https://www.visugpx.com">
  <metadata>
    <name>vtt villeneuve &gt; camp tracier</name>
    <desc><![CDATA[avec Pascal]]></desc>
  </metadata>
  <trk>
    <name><![CDATA[villeneuve <> camp tracier ]]></name>
    <desc><![CDATA[<h1>OruxMaps</h1><br /><hr align="center" width="480" style="height: 2px; width: 517px"/><h2>Nom: villeneuve <> camp tracier </h2><br /><p>Temps de départ: 12/11/2015 13:06</p><p>Temps d'arrivée: 12/11/2015 15:47</p><p>Distance: 18,6km (02:40)</p><p>Temps déplacement: 02:19</p><p>Vitesse moyenne: 6,9km/h</p><p>Vitesse moyenne: 8km/h</p><p>Vitess Max.: 31,1km/h</p><p>Altitude minimale: -4m</p><p>Altitude maximale: 267m</p><p>Vitesse d'élévation: 364,8m/h</p><p>Vitesse de descente: -492,6m/h</p><p>Gain Altitude: 465m</p><p>Perte Altitude: -461m</p><p>Temps d'élévation: 01:16</p><p>Temps de descente: 00:56</p><hr align="center" width="480" style="height: 2px; width: 517px"/>]]></desc>
    <trkseg>
      <trkpt lat="43.65779" lon="7.11981">
        <ele>-2.5</ele>
        <time>2015-12-11T12:06:58Z</time>
      </trkpt>
      <trkpt lat="43.65767" lon="7.12">
        <ele>10.29</ele>
        <time>2015-12-11T12:11:13Z</time>
      </trkpt>
      <trkpt lat="43.65765" lon="7.12026">
        <ele>9.98</ele>
        <time>2015-12-11T12:11:26Z</time>
      </trkpt>
      <trkpt lat="43.65784" lon="7.12031">
        <ele>9.9</ele>
        <time>2015-12-11T12:11:39Z</time>
      </trkpt>
      <trkpt lat="43.65803" lon="7.1202">
        <ele>10.24</ele>
        <time>2015-12-11T12:11:47Z</time>
      </trkpt>
      <trkpt lat="43.6582" lon="7.12006">
        <ele>10.65</ele>
        <time>2015-12-11T12:11:54Z</time>
      </trkpt>
      <trkpt lat="43.65836" lon="7.11991">
        <ele>11.09</ele>
        <time>2015-12-11T12:12:01Z</time>
      </trkpt>
      <trkpt lat="43.6585" lon="7.11976">
        <ele>11.82</ele>
        <time>2015-12-11T12:12:08Z</time>
      </trkpt>
      <trkpt lat="43.65864" lon="7.11958">
        <ele>12.53</ele>
        <time>2015-12-11T12:12:16Z</time>
      </trkpt>
      <trkpt lat="43.65876" lon="7.11939">
        <ele>13.23</ele>
        <time>2015-12-11T12:12:22Z</time>
      </trkpt>
      <trkpt lat="43.65889" lon="7.1192">
        <ele>13.79</ele>
        <time>2015-12-11T12:12:28Z</time>
      </trkpt>
      <trkpt lat="43.65904" lon="7.11903">
        <ele>14.23</ele>
        <time>2015-12-11T12:12:35Z</time>
      </trkpt>
      <trkpt lat="43.65918" lon="7.11884">
        <ele>14.36</ele>
        <time>2015-12-11T12:12:41Z</time>
      </trkpt>
      <trkpt lat="43.65929" lon="7.11864">
        <ele>14.55</ele>
        <time>2015-12-11T12:12:47Z</time>
      </trkpt>
      <trkpt lat="43.65938" lon="7.11842">
        <ele>15.12</ele>
        <time>2015-12-11T12:12:53Z</time>
      </trkpt>
      <trkpt lat="43.65947" lon="7.11819">
        <ele>15.93</ele>
        <time>2015-12-11T12:12:59Z</time>
      </trkpt>
      <trkpt lat="43.65959" lon="7.118">
        <ele>16.75</ele>
        <time>2015-12-11T12:13:05Z</time>
      </trkpt>
      <trkpt lat="43.65968" lon="7.11775">
        <ele>17.1</ele>
        <time>2015-12-11T12:13:12Z</time>
      </trkpt>
      <trkpt lat="43.65977" lon="7.1175">
        <ele>16.79</ele>
        <time>2015-12-11T12:13:19Z</time>
      </trkpt>
      <trkpt lat="43.65991" lon="7.11728">
        <ele>16.52</ele>
        <time>2015-12-11T12:13:26Z</time>
      </trkpt>
      <trkpt lat="43.66002" lon="7.11704">
        <ele>16.28</ele>
        <time>2015-12-11T12:13:32Z</time>
      </trkpt>
      <trkpt lat="43.66014" lon="7.11683">
        <ele>15.94</ele>
        <time>2015-12-11T12:13:38Z</time>
      </trkpt>
      <trkpt lat="43.66024" lon="7.1166">
        <ele>15.66</ele>
        <time>2015-12-11T12:13:44Z</time>
      </trkpt>
      <trkpt lat="43.66031" lon="7.11637">
        <ele>15.42</ele>
        <time>2015-12-11T12:13:50Z</time>
      </trkpt>
      <trkpt lat="43.66039" lon="7.11611">
        <ele>15.72</ele>
        <time>2015-12-11T12:13:57Z</time>
      </trkpt>
      <trkpt lat="43.66047" lon="7.11586">
        <ele>15.51</ele>
        <time>2015-12-11T12:14:04Z</time>
      </trkpt>
      <trkpt lat="43.66055" lon="7.11563">
        <ele>15.32</ele>
        <time>2015-12-11T12:14:10Z</time>
      </trkpt>
      <trkpt lat="43.66064" lon="7.11538">
        <ele>15.13</ele>
        <time>2015-12-11T12:14:17Z</time>
      </trkpt>
      <trkpt lat="43.66069" lon="7.11511">
        <ele>15.06</ele>
        <time>2015-12-11T12:14:24Z</time>
      </trkpt>
      <trkpt lat="43.66076" lon="7.11485">
        <ele>12.28</ele>
        <time>2015-12-11T12:14:44Z</time>
      </trkpt>
      <trkpt lat="43.66092" lon="7.11467">
        <ele>11.75</ele>
        <time>2015-12-11T12:14:51Z</time>
      </trkpt>
      <trkpt lat="43.66109" lon="7.11452">
        <ele>11.97</ele>
        <time>2015-12-11T12:14:57Z</time>
      </trkpt>
      <trkpt lat="43.66126" lon="7.11436">
        <ele>12.93</ele>
        <time>2015-12-11T12:15:04Z</time>
      </trkpt>
      <trkpt lat="43.66143" lon="7.11421">
        <ele>13.47</ele>
        <time>2015-12-11T12:15:10Z</time>
      </trkpt>
      <trkpt lat="43.6616" lon="7.11408">
        <ele>13.6</ele>
        <time>2015-12-11T12:15:16Z</time>
      </trkpt>
      <trkpt lat="43.6618" lon="7.11396">
        <ele>13.75</ele>
        <time>2015-12-11T12:15:22Z</time>
      </trkpt>
      <trkpt lat="43.66197" lon="7.11382">
        <ele>13.74</ele>
        <time>2015-12-11T12:15:27Z</time>
      </trkpt>
      <trkpt lat="43.66214" lon="7.11369">
        <ele>13.41</ele>
        <time>2015-12-11T12:15:32Z</time>
      </trkpt>
      <trkpt lat="43.66235" lon="7.11359">
        <ele>13.17</ele>
        <time>2015-12-11T12:15:38Z</time>
      </trkpt>
      <trkpt lat="43.66254" lon="7.11353">
        <ele>13.29</ele>
        <time>2015-12-11T12:15:43Z</time>
      </trkpt>
      <trkpt lat="43.66272" lon="7.11348">
        <ele>13.76</ele>
        <time>2015-12-11T12:15:47Z</time>
      </trkpt>
      <trkpt lat="43.66293" lon="7.11345">
        <ele>14.46</ele>
        <time>2015-12-11T12:15:53Z</time>
      </trkpt>
      <trkpt lat="43.66314" lon="7.1134">
        <ele>15.18</ele>
        <time>2015-12-11T12:15:58Z</time>
      </trkpt>
      <trkpt lat="43.66333" lon="7.11331">
        <ele>16.04</ele>
        <time>2015-12-11T12:16:05Z</time>
      </trkpt>
      <trkpt lat="43.66351" lon="7.11323">
        <ele>16.77</ele>
        <time>2015-12-11T12:16:11Z</time>
      </trkpt>
      <trkpt lat="43.66369" lon="7.11313">
        <ele>17.08</ele>
        <time>2015-12-11T12:16:16Z</time>
      </trkpt>
      <trkpt lat="43.66384" lon="7.11299">
        <ele>17.3</ele>
        <time>2015-12-11T12:16:22Z</time>
      </trkpt>
      <trkpt lat="43.664" lon="7.11285">
        <ele>17.51</ele>
        <time>2015-12-11T12:16:27Z</time>
      </trkpt>
      <trkpt lat="43.66418" lon="7.11279">
        <ele>17.89</ele>
        <time>2015-12-11T12:16:31Z</time>
      </trkpt>
      <trkpt lat="43.66436" lon="7.11271">
        <ele>18.47</ele>
        <time>2015-12-11T12:16:36Z</time>
      </trkpt>
      <trkpt lat="43.66449" lon="7.11249">
        <ele>19.28</ele>
        <time>2015-12-11T12:16:42Z</time>
      </trkpt>
      <trkpt lat="43.66464" lon="7.1123">
        <ele>21.19</ele>
        <time>2015-12-11T12:16:48Z</time>
      </trkpt>
      <trkpt lat="43.66481" lon="7.11217">
        <ele>21.54</ele>
        <time>2015-12-11T12:16:53Z</time>
      </trkpt>
      <trkpt lat="43.66499" lon="7.11208">
        <ele>21.88</ele>
        <time>2015-12-11T12:16:58Z</time>
      </trkpt>
      <trkpt lat="43.66518" lon="7.11199">
        <ele>22.24</ele>
        <time>2015-12-11T12:17:03Z</time>
      </trkpt>
      <trkpt lat="43.66536" lon="7.11189">
        <ele>23.49</ele>
        <time>2015-12-11T12:17:07Z</time>
      </trkpt>
      <trkpt lat="43.66555" lon="7.1118">
        <ele>25.18</ele>
        <time>2015-12-11T12:17:11Z</time>
      </trkpt>
      <trkpt lat="43.66573" lon="7.11174">
        <ele>25.47</ele>
        <time>2015-12-11T12:17:15Z</time>
      </trkpt>
      <trkpt lat="43.66591" lon="7.11172">
        <ele>25.6</ele>
        <time>2015-12-11T12:17:20Z</time>
      </trkpt>
      <trkpt lat="43.66611" lon="7.11163">
        <ele>25.72</ele>
        <time>2015-12-11T12:17:26Z</time>
      </trkpt>
      <trkpt lat="43.66631" lon="7.11151">
        <ele>25.61</ele>
        <time>2015-12-11T12:17:31Z</time>
      </trkpt>
      <trkpt lat="43.66651" lon="7.1114">
        <ele>23.41</ele>
        <time>2015-12-11T12:17:36Z</time>
      </trkpt>
      <trkpt lat="43.6667" lon="7.11131">
        <ele>21.55</ele>
        <time>2015-12-11T12:17:41Z</time>
      </trkpt>
      <trkpt lat="43.6669" lon="7.1112">
        <ele>20.76</ele>
        <time>2015-12-11T12:17:47Z</time>
      </trkpt>
      <trkpt lat="43.66704" lon="7.11104">
        <ele>20.51</ele>
        <time>2015-12-11T12:17:54Z</time>
      </trkpt>
      <trkpt lat="43.6672" lon="7.11088">
        <ele>20.42</ele>
        <time>2015-12-11T12:18:00Z</time>
      </trkpt>
      <trkpt lat="43.66737" lon="7.11071">
        <ele>20.46</ele>
        <time>2015-12-11T12:18:05Z</time>
      </trkpt>
      <trkpt lat="43.66751" lon="7.11053">
        <ele>18.54</ele>
        <time>2015-12-11T12:18:09Z</time>
      </trkpt>
      <trkpt lat="43.66766" lon="7.11033">
        <ele>17.17</ele>
        <time>2015-12-11T12:18:14Z</time>
      </trkpt>
      <trkpt lat="43.6678" lon="7.11012">
        <ele>17.16</ele>
        <time>2015-12-11T12:18:20Z</time>
      </trkpt>
      <trkpt lat="43.6679" lon="7.10991">
        <ele>17.48</ele>
        <time>2015-12-11T12:18:26Z</time>
      </trkpt>
      <trkpt lat="43.66804" lon="7.10969">
        <ele>17.69</ele>
        <time>2015-12-11T12:18:32Z</time>
      </trkpt>
      <trkpt lat="43.66812" lon="7.10945">
        <ele>17.89</ele>
        <time>2015-12-11T12:18:38Z</time>
      </trkpt>
      <trkpt lat="43.66817" lon="7.10918">
        <ele>18.25</ele>
        <time>2015-12-11T12:18:44Z</time>
      </trkpt>
      <trkpt lat="43.66824" lon="7.1089">
        <ele>18.64</ele>
        <time>2015-12-11T12:18:51Z</time>
      </trkpt>
      <trkpt lat="43.66833" lon="7.10867">
        <ele>18.51</ele>
        <time>2015-12-11T12:18:57Z</time>
      </trkpt>
      <trkpt lat="43.6684" lon="7.10842">
        <ele>18.27</ele>
        <time>2015-12-11T12:19:03Z</time>
      </trkpt>
      <trkpt lat="43.66843" lon="7.10814">
        <ele>18.16</ele>
        <time>2015-12-11T12:19:09Z</time>
      </trkpt>
      <trkpt lat="43.66849" lon="7.10789">
        <ele>18.26</ele>
        <time>2015-12-11T12:19:15Z</time>
      </trkpt>
      <trkpt lat="43.66856" lon="7.10762">
        <ele>18.66</ele>
        <time>2015-12-11T12:19:20Z</time>
      </trkpt>
      <trkpt lat="43.66864" lon="7.10735">
        <ele>19.71</ele>
        <time>2015-12-11T12:19:25Z</time>
      </trkpt>
      <trkpt lat="43.66872" lon="7.10711">
        <ele>21.36</ele>
        <time>2015-12-11T12:19:30Z</time>
      </trkpt>
      <trkpt lat="43.6688" lon="7.10685">
        <ele>21.61</ele>
        <time>2015-12-11T12:19:36Z</time>
      </trkpt>
      <trkpt lat="43.66886" lon="7.10659">
        <ele>21.82</ele>
        <time>2015-12-11T12:19:41Z</time>
      </trkpt>
      <trkpt lat="43.66892" lon="7.10633">
        <ele>21.74</ele>
        <time>2015-12-11T12:19:47Z</time>
      </trkpt>
      <trkpt lat="43.66898" lon="7.10608">
        <ele>21.46</ele>
        <time>2015-12-11T12:19:52Z</time>
      </trkpt>
      <trkpt lat="43.66903" lon="7.10582">
        <ele>21.28</ele>
        <time>2015-12-11T12:19:58Z</time>
      </trkpt>
      <trkpt lat="43.66914" lon="7.1056">
        <ele>21.27</ele>
        <time>2015-12-11T12:20:05Z</time>
      </trkpt>
      <trkpt lat="43.66922" lon="7.10534">
        <ele>21.82</ele>
        <time>2015-12-11T12:20:12Z</time>
      </trkpt>
      <trkpt lat="43.66932" lon="7.10509">
        <ele>22.47</ele>
        <time>2015-12-11T12:20:19Z</time>
      </trkpt>
      <trkpt lat="43.66943" lon="7.10486">
        <ele>22.63</ele>
        <time>2015-12-11T12:20:27Z</time>
      </trkpt>
      <trkpt lat="43.6695" lon="7.1046">
        <ele>22.53</ele>
        <time>2015-12-11T12:20:33Z</time>
      </trkpt>
      <trkpt lat="43.66945" lon="7.10435">
        <ele>22.38</ele>
        <time>2015-12-11T12:20:41Z</time>
      </trkpt>
      <trkpt lat="43.66926" lon="7.10429">
        <ele>22.1</ele>
        <time>2015-12-11T12:20:51Z</time>
      </trkpt>
      <trkpt lat="43.66907" lon="7.10423">
        <ele>22.8</ele>
        <time>2015-12-11T12:21:01Z</time>
      </trkpt>
      <trkpt lat="43.66892" lon="7.10408">
        <ele>22.75</ele>
        <time>2015-12-11T12:21:12Z</time>
      </trkpt>
      <trkpt lat="43.66873" lon="7.10406">
        <ele>22.05</ele>
        <time>2015-12-11T12:21:23Z</time>
      </trkpt>
      <trkpt lat="43.66853" lon="7.10409">
        <ele>21.85</ele>
        <time>2015-12-11T12:21:35Z</time>
      </trkpt>
      <trkpt lat="43.66834" lon="7.10416">
        <ele>21.6</ele>
        <time>2015-12-11T12:21:46Z</time>
      </trkpt>
      <trkpt lat="43.66816" lon="7.10419">
        <ele>22.33</ele>
        <time>2015-12-11T12:21:59Z</time>
      </trkpt>
      <trkpt lat="43.66816" lon="7.10393">
        <ele>21.35</ele>
        <time>2015-12-11T12:22:16Z</time>
      </trkpt>
      <trkpt lat="43.6681" lon="7.10369">
        <ele>21.57</ele>
        <time>2015-12-11T12:22:40Z</time>
      </trkpt>
      <trkpt lat="43.66811" lon="7.10343">
        <ele>27.26</ele>
        <time>2015-12-11T12:23:55Z</time>
      </trkpt>
      <trkpt lat="43.66799" lon="7.10323">
        <ele>28.41</ele>
        <time>2015-12-11T12:24:11Z</time>
      </trkpt>
      <trkpt lat="43.66785" lon="7.10305">
        <ele>29.81</ele>
        <time>2015-12-11T12:24:27Z</time>
      </trkpt>
      <trkpt lat="43.66769" lon="7.1029">
        <ele>30.45</ele>
        <time>2015-12-11T12:24:36Z</time>
      </trkpt>
      <trkpt lat="43.66754" lon="7.10277">
        <ele>31.52</ele>
        <time>2015-12-11T12:24:49Z</time>
      </trkpt>
      <trkpt lat="43.66743" lon="7.10254">
        <ele>33.48</ele>
        <time>2015-12-11T12:25:06Z</time>
      </trkpt>
      <trkpt lat="43.66738" lon="7.10229">
        <ele>35.33</ele>
        <time>2015-12-11T12:25:22Z</time>
      </trkpt>
      <trkpt lat="43.66727" lon="7.10208">
        <ele>38.06</ele>
        <time>2015-12-11T12:25:43Z</time>
      </trkpt>
      <trkpt lat="43.66712" lon="7.10193">
        <ele>40.3</ele>
        <time>2015-12-11T12:26:00Z</time>
      </trkpt>
      <trkpt lat="43.66698" lon="7.10177">
        <ele>42.03</ele>
        <time>2015-12-11T12:26:17Z</time>
      </trkpt>
      <trkpt lat="43.66688" lon="7.10155">
        <ele>44.8</ele>
        <time>2015-12-11T12:26:36Z</time>
      </trkpt>
      <trkpt lat="43.66677" lon="7.10135">
        <ele>46.53</ele>
        <time>2015-12-11T12:26:51Z</time>
      </trkpt>
      <trkpt lat="43.66661" lon="7.10123">
        <ele>48.47</ele>
        <time>2015-12-11T12:27:11Z</time>
      </trkpt>
      <trkpt lat="43.66656" lon="7.10098">
        <ele>51.05</ele>
        <time>2015-12-11T12:27:31Z</time>
      </trkpt>
      <trkpt lat="43.66651" lon="7.10072">
        <ele>56.47</ele>
        <time>2015-12-11T12:27:59Z</time>
      </trkpt>
      <trkpt lat="43.66648" lon="7.10047">
        <ele>59.28</ele>
        <time>2015-12-11T12:28:20Z</time>
      </trkpt>
      <trkpt lat="43.66649" lon="7.10021">
        <ele>64.23</ele>
        <time>2015-12-11T12:28:46Z</time>
      </trkpt>
      <trkpt lat="43.66652" lon="7.09997">
        <ele>67.17</ele>
        <time>2015-12-11T12:29:01Z</time>
      </trkpt>
      <trkpt lat="43.66652" lon="7.09972">
        <ele>71.69</ele>
        <time>2015-12-11T12:29:33Z</time>
      </trkpt>
      <trkpt lat="43.66651" lon="7.09945">
        <ele>76.41</ele>
        <time>2015-12-11T12:30:53Z</time>
      </trkpt>
      <trkpt lat="43.6666" lon="7.09923">
        <ele>76.75</ele>
        <time>2015-12-11T12:31:02Z</time>
      </trkpt>
      <trkpt lat="43.66664" lon="7.09898">
        <ele>77.26</ele>
        <time>2015-12-11T12:31:12Z</time>
      </trkpt>
      <trkpt lat="43.66665" lon="7.09871">
        <ele>78.22</ele>
        <time>2015-12-11T12:31:24Z</time>
      </trkpt>
      <trkpt lat="43.66672" lon="7.09847">
        <ele>79.23</ele>
        <time>2015-12-11T12:31:34Z</time>
      </trkpt>
      <trkpt lat="43.66681" lon="7.09825">
        <ele>80.23</ele>
        <time>2015-12-11T12:31:42Z</time>
      </trkpt>
      <trkpt lat="43.66688" lon="7.098">
        <ele>81.06</ele>
        <time>2015-12-11T12:31:50Z</time>
      </trkpt>
      <trkpt lat="43.6669" lon="7.09774">
        <ele>81.87</ele>
        <time>2015-12-11T12:31:58Z</time>
      </trkpt>
      <trkpt lat="43.66695" lon="7.0975">
        <ele>83.33</ele>
        <time>2015-12-11T12:32:09Z</time>
      </trkpt>
      <trkpt lat="43.66676" lon="7.09742">
        <ele>85</ele>
        <time>2015-12-11T12:32:24Z</time>
      </trkpt>
      <trkpt lat="43.66665" lon="7.09721">
        <ele>85.51</ele>
        <time>2015-12-11T12:32:30Z</time>
      </trkpt>
      <trkpt lat="43.66658" lon="7.09696">
        <ele>86.18</ele>
        <time>2015-12-11T12:32:37Z</time>
      </trkpt>
      <trkpt lat="43.66652" lon="7.09673">
        <ele>86.97</ele>
        <time>2015-12-11T12:32:45Z</time>
      </trkpt>
      <trkpt lat="43.66645" lon="7.09647">
        <ele>87.47</ele>
        <time>2015-12-11T12:32:54Z</time>
      </trkpt>
      <trkpt lat="43.66636" lon="7.09624">
        <ele>87.99</ele>
        <time>2015-12-11T12:33:05Z</time>
      </trkpt>
      <trkpt lat="43.66642" lon="7.09598">
        <ele>88.39</ele>
        <time>2015-12-11T12:33:18Z</time>
      </trkpt>
      <trkpt lat="43.66644" lon="7.09571">
        <ele>88.76</ele>
        <time>2015-12-11T12:33:27Z</time>
      </trkpt>
      <trkpt lat="43.66635" lon="7.09548">
        <ele>89.43</ele>
        <time>2015-12-11T12:33:35Z</time>
      </trkpt>
      <trkpt lat="43.66623" lon="7.09529">
        <ele>90.69</ele>
        <time>2015-12-11T12:33:46Z</time>
      </trkpt>
      <trkpt lat="43.66615" lon="7.09506">
        <ele>91.78</ele>
        <time>2015-12-11T12:33:56Z</time>
      </trkpt>
      <trkpt lat="43.66601" lon="7.09487">
        <ele>92.39</ele>
        <time>2015-12-11T12:34:06Z</time>
      </trkpt>
      <trkpt lat="43.66597" lon="7.09461">
        <ele>93.01</ele>
        <time>2015-12-11T12:34:16Z</time>
      </trkpt>
      <trkpt lat="43.66598" lon="7.09436">
        <ele>93.39</ele>
        <time>2015-12-11T12:34:26Z</time>
      </trkpt>
      <trkpt lat="43.66602" lon="7.09412">
        <ele>94.38</ele>
        <time>2015-12-11T12:34:37Z</time>
      </trkpt>
      <trkpt lat="43.66603" lon="7.09386">
        <ele>95.53</ele>
        <time>2015-12-11T12:34:49Z</time>
      </trkpt>
      <trkpt lat="43.66606" lon="7.09359">
        <ele>96.57</ele>
        <time>2015-12-11T12:35:00Z</time>
      </trkpt>
      <trkpt lat="43.6661" lon="7.09332">
        <ele>97.85</ele>
        <time>2015-12-11T12:35:12Z</time>
      </trkpt>
      <trkpt lat="43.66619" lon="7.0931">
        <ele>99.15</ele>
        <time>2015-12-11T12:35:23Z</time>
      </trkpt>
      <trkpt lat="43.66633" lon="7.0929">
        <ele>100.64</ele>
        <time>2015-12-11T12:35:35Z</time>
      </trkpt>
      <trkpt lat="43.66646" lon="7.09272">
        <ele>101.91</ele>
        <time>2015-12-11T12:35:47Z</time>
      </trkpt>
      <trkpt lat="43.66655" lon="7.09249">
        <ele>103.17</ele>
        <time>2015-12-11T12:36:00Z</time>
      </trkpt>
      <trkpt lat="43.66662" lon="7.09224">
        <ele>105.81</ele>
        <time>2015-12-11T12:36:14Z</time>
      </trkpt>
      <trkpt lat="43.66671" lon="7.09202">
        <ele>107.53</ele>
        <time>2015-12-11T12:36:23Z</time>
      </trkpt>
      <trkpt lat="43.66681" lon="7.0918">
        <ele>109.6</ele>
        <time>2015-12-11T12:36:35Z</time>
      </trkpt>
      <trkpt lat="43.66696" lon="7.09166">
        <ele>111.27</ele>
        <time>2015-12-11T12:36:44Z</time>
      </trkpt>
      <trkpt lat="43.6671" lon="7.09149">
        <ele>113.28</ele>
        <time>2015-12-11T12:36:55Z</time>
      </trkpt>
      <trkpt lat="43.66722" lon="7.0913">
        <ele>114.97</ele>
        <time>2015-12-11T12:37:05Z</time>
      </trkpt>
      <trkpt lat="43.66727" lon="7.09104">
        <ele>116.68</ele>
        <time>2015-12-11T12:37:15Z</time>
      </trkpt>
      <trkpt lat="43.66728" lon="7.09078">
        <ele>119.02</ele>
        <time>2015-12-11T12:37:28Z</time>
      </trkpt>
      <trkpt lat="43.66736" lon="7.09056">
        <ele>119.9</ele>
        <time>2015-12-11T12:37:39Z</time>
      </trkpt>
      <trkpt lat="43.66749" lon="7.09038">
        <ele>120.86</ele>
        <time>2015-12-11T12:37:48Z</time>
      </trkpt>
      <trkpt lat="43.66761" lon="7.09017">
        <ele>123.1</ele>
        <time>2015-12-11T12:38:01Z</time>
      </trkpt>
      <trkpt lat="43.66778" lon="7.09006">
        <ele>125.09</ele>
        <time>2015-12-11T12:38:12Z</time>
      </trkpt>
      <trkpt lat="43.66795" lon="7.08996">
        <ele>127.21</ele>
        <time>2015-12-11T12:38:22Z</time>
      </trkpt>
      <trkpt lat="43.66813" lon="7.08988">
        <ele>128.68</ele>
        <time>2015-12-11T12:38:31Z</time>
      </trkpt>
      <trkpt lat="43.66831" lon="7.08983">
        <ele>129.97</ele>
        <time>2015-12-11T12:38:42Z</time>
      </trkpt>
      <trkpt lat="43.66848" lon="7.08972">
        <ele>131.87</ele>
        <time>2015-12-11T12:38:54Z</time>
      </trkpt>
      <trkpt lat="43.66858" lon="7.08949">
        <ele>133.59</ele>
        <time>2015-12-11T12:39:05Z</time>
      </trkpt>
      <trkpt lat="43.66873" lon="7.08933">
        <ele>135.15</ele>
        <time>2015-12-11T12:39:17Z</time>
      </trkpt>
      <trkpt lat="43.66878" lon="7.08908">
        <ele>136.73</ele>
        <time>2015-12-11T12:39:30Z</time>
      </trkpt>
      <trkpt lat="43.66884" lon="7.08884">
        <ele>138.38</ele>
        <time>2015-12-11T12:39:41Z</time>
      </trkpt>
      <trkpt lat="43.66889" lon="7.0886">
        <ele>140.3</ele>
        <time>2015-12-11T12:39:54Z</time>
      </trkpt>
      <trkpt lat="43.66893" lon="7.08835">
        <ele>141.9</ele>
        <time>2015-12-11T12:40:06Z</time>
      </trkpt>
      <trkpt lat="43.66899" lon="7.0881">
        <ele>143.89</ele>
        <time>2015-12-11T12:40:18Z</time>
      </trkpt>
      <trkpt lat="43.66907" lon="7.08788">
        <ele>146.51</ele>
        <time>2015-12-11T12:40:32Z</time>
      </trkpt>
      <trkpt lat="43.66909" lon="7.08762">
        <ele>148.89</ele>
        <time>2015-12-11T12:40:45Z</time>
      </trkpt>
      <trkpt lat="43.66905" lon="7.08737">
        <ele>151.79</ele>
        <time>2015-12-11T12:40:59Z</time>
      </trkpt>
      <trkpt lat="43.66902" lon="7.08711">
        <ele>155.23</ele>
        <time>2015-12-11T12:41:14Z</time>
      </trkpt>
      <trkpt lat="43.669" lon="7.08684">
        <ele>157.56</ele>
        <time>2015-12-11T12:41:26Z</time>
      </trkpt>
      <trkpt lat="43.66899" lon="7.08659">
        <ele>158.77</ele>
        <time>2015-12-11T12:41:35Z</time>
      </trkpt>
      <trkpt lat="43.669" lon="7.08633">
        <ele>160.95</ele>
        <time>2015-12-11T12:41:56Z</time>
      </trkpt>
      <trkpt lat="43.66905" lon="7.08607">
        <ele>160.72</ele>
        <time>2015-12-11T12:42:33Z</time>
      </trkpt>
      <trkpt lat="43.66903" lon="7.08579">
        <ele>160.5</ele>
        <time>2015-12-11T12:42:41Z</time>
      </trkpt>
      <trkpt lat="43.66902" lon="7.08553">
        <ele>160.84</ele>
        <time>2015-12-11T12:42:50Z</time>
      </trkpt>
      <trkpt lat="43.66898" lon="7.08527">
        <ele>161.3</ele>
        <time>2015-12-11T12:42:59Z</time>
      </trkpt>
      <trkpt lat="43.6689" lon="7.08503">
        <ele>161.91</ele>
        <time>2015-12-11T12:43:09Z</time>
      </trkpt>
      <trkpt lat="43.66888" lon="7.08478">
        <ele>162.79</ele>
        <time>2015-12-11T12:43:19Z</time>
      </trkpt>
      <trkpt lat="43.66888" lon="7.08452">
        <ele>163.72</ele>
        <time>2015-12-11T12:43:30Z</time>
      </trkpt>
      <trkpt lat="43.66883" lon="7.08428">
        <ele>165.28</ele>
        <time>2015-12-11T12:43:42Z</time>
      </trkpt>
      <trkpt lat="43.66873" lon="7.08405">
        <ele>167.5</ele>
        <time>2015-12-11T12:43:55Z</time>
      </trkpt>
      <trkpt lat="43.66864" lon="7.08384">
        <ele>170.44</ele>
        <time>2015-12-11T12:44:08Z</time>
      </trkpt>
      <trkpt lat="43.66857" lon="7.08359">
        <ele>174.04</ele>
        <time>2015-12-11T12:44:24Z</time>
      </trkpt>
      <trkpt lat="43.66851" lon="7.08336">
        <ele>175.85</ele>
        <time>2015-12-11T12:44:36Z</time>
      </trkpt>
      <trkpt lat="43.66851" lon="7.08308">
        <ele>177.32</ele>
        <time>2015-12-11T12:44:46Z</time>
      </trkpt>
      <trkpt lat="43.66851" lon="7.08283">
        <ele>178.22</ele>
        <time>2015-12-11T12:44:54Z</time>
      </trkpt>
      <trkpt lat="43.66843" lon="7.08252">
        <ele>179.54</ele>
        <time>2015-12-11T12:45:00Z</time>
      </trkpt>
      <trkpt lat="43.66837" lon="7.08222">
        <ele>179.85</ele>
        <time>2015-12-11T12:45:04Z</time>
      </trkpt>
      <trkpt lat="43.66835" lon="7.08188">
        <ele>179.09</ele>
        <time>2015-12-11T12:45:08Z</time>
      </trkpt>
      <trkpt lat="43.66834" lon="7.08163">
        <ele>178.74</ele>
        <time>2015-12-11T12:45:11Z</time>
      </trkpt>
      <trkpt lat="43.66831" lon="7.08134">
        <ele>178.81</ele>
        <time>2015-12-11T12:45:15Z</time>
      </trkpt>
      <trkpt lat="43.66829" lon="7.08108">
        <ele>178.67</ele>
        <time>2015-12-11T12:45:19Z</time>
      </trkpt>
      <trkpt lat="43.66825" lon="7.08082">
        <ele>179.71</ele>
        <time>2015-12-11T12:45:24Z</time>
      </trkpt>
      <trkpt lat="43.66818" lon="7.08056">
        <ele>180.61</ele>
        <time>2015-12-11T12:45:32Z</time>
      </trkpt>
      <trkpt lat="43.6681" lon="7.08032">
        <ele>182.25</ele>
        <time>2015-12-11T12:45:43Z</time>
      </trkpt>
      <trkpt lat="43.66803" lon="7.08008">
        <ele>184.07</ele>
        <time>2015-12-11T12:45:53Z</time>
      </trkpt>
      <trkpt lat="43.66798" lon="7.0798">
        <ele>184.93</ele>
        <time>2015-12-11T12:46:03Z</time>
      </trkpt>
      <trkpt lat="43.66796" lon="7.07953">
        <ele>185.16</ele>
        <time>2015-12-11T12:46:09Z</time>
      </trkpt>
      <trkpt lat="43.66791" lon="7.07927">
        <ele>185.48</ele>
        <time>2015-12-11T12:46:16Z</time>
      </trkpt>
      <trkpt lat="43.66794" lon="7.07901">
        <ele>185.86</ele>
        <time>2015-12-11T12:46:22Z</time>
      </trkpt>
      <trkpt lat="43.66801" lon="7.07875">
        <ele>186.01</ele>
        <time>2015-12-11T12:46:28Z</time>
      </trkpt>
      <trkpt lat="43.66809" lon="7.07853">
        <ele>186.12</ele>
        <time>2015-12-11T12:46:34Z</time>
      </trkpt>
      <trkpt lat="43.66818" lon="7.07828">
        <ele>186.36</ele>
        <time>2015-12-11T12:46:41Z</time>
      </trkpt>
      <trkpt lat="43.66828" lon="7.07804">
        <ele>186.84</ele>
        <time>2015-12-11T12:46:48Z</time>
      </trkpt>
      <trkpt lat="43.6684" lon="7.07782">
        <ele>187.32</ele>
        <time>2015-12-11T12:46:56Z</time>
      </trkpt>
      <trkpt lat="43.66848" lon="7.07756">
        <ele>188.58</ele>
        <time>2015-12-11T12:47:06Z</time>
      </trkpt>
      <trkpt lat="43.66859" lon="7.07736">
        <ele>189.71</ele>
        <time>2015-12-11T12:47:14Z</time>
      </trkpt>
      <trkpt lat="43.66872" lon="7.07719">
        <ele>190.79</ele>
        <time>2015-12-11T12:47:23Z</time>
      </trkpt>
      <trkpt lat="43.6688" lon="7.07697">
        <ele>191.81</ele>
        <time>2015-12-11T12:47:33Z</time>
      </trkpt>
      <trkpt lat="43.66881" lon="7.0767">
        <ele>193.08</ele>
        <time>2015-12-11T12:47:43Z</time>
      </trkpt>
      <trkpt lat="43.66876" lon="7.07643">
        <ele>194.19</ele>
        <time>2015-12-11T12:47:52Z</time>
      </trkpt>
      <trkpt lat="43.66873" lon="7.07618">
        <ele>195.5</ele>
        <time>2015-12-11T12:48:01Z</time>
      </trkpt>
      <trkpt lat="43.6688" lon="7.07593">
        <ele>196.69</ele>
        <time>2015-12-11T12:48:09Z</time>
      </trkpt>
      <trkpt lat="43.66896" lon="7.07576">
        <ele>198.47</ele>
        <time>2015-12-11T12:48:18Z</time>
      </trkpt>
      <trkpt lat="43.66909" lon="7.07556">
        <ele>200.49</ele>
        <time>2015-12-11T12:48:29Z</time>
      </trkpt>
      <trkpt lat="43.66908" lon="7.0753">
        <ele>201.29</ele>
        <time>2015-12-11T12:48:36Z</time>
      </trkpt>
      <trkpt lat="43.66903" lon="7.07506">
        <ele>201.86</ele>
        <time>2015-12-11T12:48:42Z</time>
      </trkpt>
      <trkpt lat="43.66902" lon="7.07481">
        <ele>202.25</ele>
        <time>2015-12-11T12:48:48Z</time>
      </trkpt>
      <trkpt lat="43.66899" lon="7.07453">
        <ele>202.26</ele>
        <time>2015-12-11T12:48:54Z</time>
      </trkpt>
      <trkpt lat="43.66885" lon="7.07429">
        <ele>202.28</ele>
        <time>2015-12-11T12:49:00Z</time>
      </trkpt>
      <trkpt lat="43.66871" lon="7.07409">
        <ele>201.45</ele>
        <time>2015-12-11T12:49:07Z</time>
      </trkpt>
      <trkpt lat="43.66858" lon="7.0739">
        <ele>196.64</ele>
        <time>2015-12-11T12:49:11Z</time>
      </trkpt>
      <trkpt lat="43.66841" lon="7.07371">
        <ele>193.4</ele>
        <time>2015-12-11T12:49:15Z</time>
      </trkpt>
      <trkpt lat="43.66824" lon="7.07354">
        <ele>192.33</ele>
        <time>2015-12-11T12:49:18Z</time>
      </trkpt>
      <trkpt lat="43.6681" lon="7.07339">
        <ele>191.89</ele>
        <time>2015-12-11T12:49:21Z</time>
      </trkpt>
      <trkpt lat="43.66793" lon="7.07318">
        <ele>191.41</ele>
        <time>2015-12-11T12:49:25Z</time>
      </trkpt>
      <trkpt lat="43.66774" lon="7.07299">
        <ele>192.26</ele>
        <time>2015-12-11T12:49:29Z</time>
      </trkpt>
      <trkpt lat="43.6676" lon="7.07281">
        <ele>192.45</ele>
        <time>2015-12-11T12:49:32Z</time>
      </trkpt>
      <trkpt lat="43.66746" lon="7.07263">
        <ele>191.11</ele>
        <time>2015-12-11T12:49:35Z</time>
      </trkpt>
      <trkpt lat="43.66729" lon="7.0724">
        <ele>189.43</ele>
        <time>2015-12-11T12:49:39Z</time>
      </trkpt>
      <trkpt lat="43.66715" lon="7.07218">
        <ele>188.49</ele>
        <time>2015-12-11T12:49:43Z</time>
      </trkpt>
      <trkpt lat="43.66706" lon="7.07191">
        <ele>188.23</ele>
        <time>2015-12-11T12:49:48Z</time>
      </trkpt>
      <trkpt lat="43.66702" lon="7.07164">
        <ele>188.14</ele>
        <time>2015-12-11T12:49:54Z</time>
      </trkpt>
      <trkpt lat="43.667" lon="7.07139">
        <ele>188.06</ele>
        <time>2015-12-11T12:49:59Z</time>
      </trkpt>
      <trkpt lat="43.66698" lon="7.07113">
        <ele>187.53</ele>
        <time>2015-12-11T12:50:03Z</time>
      </trkpt>
      <trkpt lat="43.66697" lon="7.07087">
        <ele>186.56</ele>
        <time>2015-12-11T12:50:07Z</time>
      </trkpt>
      <trkpt lat="43.66696" lon="7.07061">
        <ele>186.13</ele>
        <time>2015-12-11T12:50:12Z</time>
      </trkpt>
      <trkpt lat="43.66712" lon="7.07051">
        <ele>185.51</ele>
        <time>2015-12-11T12:51:34Z</time>
      </trkpt>
      <trkpt lat="43.66733" lon="7.07059">
        <ele>183.64</ele>
        <time>2015-12-11T12:51:40Z</time>
      </trkpt>
      <trkpt lat="43.66752" lon="7.07068">
        <ele>183.63</ele>
        <time>2015-12-11T12:51:45Z</time>
      </trkpt>
      <trkpt lat="43.66771" lon="7.07076">
        <ele>183.69</ele>
        <time>2015-12-11T12:51:51Z</time>
      </trkpt>
      <trkpt lat="43.66789" lon="7.07071">
        <ele>183.51</ele>
        <time>2015-12-11T12:51:57Z</time>
      </trkpt>
      <trkpt lat="43.66804" lon="7.0705">
        <ele>183.35</ele>
        <time>2015-12-11T12:52:03Z</time>
      </trkpt>
      <trkpt lat="43.66818" lon="7.07031">
        <ele>182.38</ele>
        <time>2015-12-11T12:52:08Z</time>
      </trkpt>
      <trkpt lat="43.66834" lon="7.07012">
        <ele>180.9</ele>
        <time>2015-12-11T12:52:13Z</time>
      </trkpt>
      <trkpt lat="43.66849" lon="7.06995">
        <ele>180.42</ele>
        <time>2015-12-11T12:52:18Z</time>
      </trkpt>
      <trkpt lat="43.66865" lon="7.06977">
        <ele>180.12</ele>
        <time>2015-12-11T12:52:24Z</time>
      </trkpt>
      <trkpt lat="43.66881" lon="7.06962">
        <ele>179.79</ele>
        <time>2015-12-11T12:52:30Z</time>
      </trkpt>
      <trkpt lat="43.66892" lon="7.0694">
        <ele>179.23</ele>
        <time>2015-12-11T12:52:37Z</time>
      </trkpt>
      <trkpt lat="43.669" lon="7.06917">
        <ele>178.98</ele>
        <time>2015-12-11T12:52:43Z</time>
      </trkpt>
      <trkpt lat="43.66899" lon="7.06893">
        <ele>178.78</ele>
        <time>2015-12-11T12:52:49Z</time>
      </trkpt>
      <trkpt lat="43.66897" lon="7.06866">
        <ele>178.46</ele>
        <time>2015-12-11T12:52:55Z</time>
      </trkpt>
      <trkpt lat="43.66913" lon="7.06854">
        <ele>178.23</ele>
        <time>2015-12-11T12:53:00Z</time>
      </trkpt>
      <trkpt lat="43.66932" lon="7.06854">
        <ele>177.97</ele>
        <time>2015-12-11T12:53:05Z</time>
      </trkpt>
      <trkpt lat="43.66951" lon="7.0685">
        <ele>177.47</ele>
        <time>2015-12-11T12:53:11Z</time>
      </trkpt>
      <trkpt lat="43.66967" lon="7.06834">
        <ele>176.96</ele>
        <time>2015-12-11T12:53:16Z</time>
      </trkpt>
      <trkpt lat="43.66982" lon="7.06818">
        <ele>176.28</ele>
        <time>2015-12-11T12:53:23Z</time>
      </trkpt>
      <trkpt lat="43.66982" lon="7.06791">
        <ele>175.6</ele>
        <time>2015-12-11T12:53:29Z</time>
      </trkpt>
      <trkpt lat="43.66998" lon="7.06776">
        <ele>174.27</ele>
        <time>2015-12-11T12:53:39Z</time>
      </trkpt>
      <trkpt lat="43.67018" lon="7.06774">
        <ele>173.37</ele>
        <time>2015-12-11T12:53:47Z</time>
      </trkpt>
      <trkpt lat="43.6704" lon="7.06772">
        <ele>172.9</ele>
        <time>2015-12-11T12:53:53Z</time>
      </trkpt>
      <trkpt lat="43.67058" lon="7.06772">
        <ele>172.44</ele>
        <time>2015-12-11T12:53:58Z</time>
      </trkpt>
      <trkpt lat="43.67078" lon="7.06772">
        <ele>171.9</ele>
        <time>2015-12-11T12:54:04Z</time>
      </trkpt>
      <trkpt lat="43.67096" lon="7.06773">
        <ele>170.88</ele>
        <time>2015-12-11T12:54:12Z</time>
      </trkpt>
      <trkpt lat="43.67115" lon="7.06778">
        <ele>169.71</ele>
        <time>2015-12-11T12:54:20Z</time>
      </trkpt>
      <trkpt lat="43.67133" lon="7.06783">
        <ele>168.68</ele>
        <time>2015-12-11T12:54:27Z</time>
      </trkpt>
      <trkpt lat="43.67151" lon="7.0678">
        <ele>167.67</ele>
        <time>2015-12-11T12:54:34Z</time>
      </trkpt>
      <trkpt lat="43.67169" lon="7.06773">
        <ele>166.82</ele>
        <time>2015-12-11T12:54:42Z</time>
      </trkpt>
      <trkpt lat="43.67187" lon="7.06765">
        <ele>166.53</ele>
        <time>2015-12-11T12:54:53Z</time>
      </trkpt>
      <trkpt lat="43.67206" lon="7.06759">
        <ele>167.19</ele>
        <time>2015-12-11T12:55:04Z</time>
      </trkpt>
      <trkpt lat="43.67226" lon="7.06758">
        <ele>167.9</ele>
        <time>2015-12-11T12:55:17Z</time>
      </trkpt>
      <trkpt lat="43.67244" lon="7.06756">
        <ele>169.46</ele>
        <time>2015-12-11T12:55:28Z</time>
      </trkpt>
      <trkpt lat="43.67262" lon="7.0676">
        <ele>171.32</ele>
        <time>2015-12-11T12:55:39Z</time>
      </trkpt>
      <trkpt lat="43.6728" lon="7.0677">
        <ele>173.58</ele>
        <time>2015-12-11T12:55:51Z</time>
      </trkpt>
      <trkpt lat="43.67297" lon="7.06779">
        <ele>174.97</ele>
        <time>2015-12-11T12:56:04Z</time>
      </trkpt>
      <trkpt lat="43.67316" lon="7.06778">
        <ele>176.61</ele>
        <time>2015-12-11T12:56:17Z</time>
      </trkpt>
      <trkpt lat="43.67334" lon="7.06772">
        <ele>177.88</ele>
        <time>2015-12-11T12:56:29Z</time>
      </trkpt>
      <trkpt lat="43.67351" lon="7.06761">
        <ele>179.21</ele>
        <time>2015-12-11T12:56:43Z</time>
      </trkpt>
      <trkpt lat="43.67366" lon="7.06744">
        <ele>181.14</ele>
        <time>2015-12-11T12:56:56Z</time>
      </trkpt>
      <trkpt lat="43.67382" lon="7.06728">
        <ele>183.02</ele>
        <time>2015-12-11T12:57:09Z</time>
      </trkpt>
      <trkpt lat="43.67398" lon="7.06713">
        <ele>184.21</ele>
        <time>2015-12-11T12:57:19Z</time>
      </trkpt>
      <trkpt lat="43.67413" lon="7.06697">
        <ele>185.22</ele>
        <time>2015-12-11T12:57:28Z</time>
      </trkpt>
      <trkpt lat="43.67429" lon="7.06681">
        <ele>186</ele>
        <time>2015-12-11T12:57:39Z</time>
      </trkpt>
      <trkpt lat="43.67443" lon="7.06666">
        <ele>186.78</ele>
        <time>2015-12-11T12:57:50Z</time>
      </trkpt>
      <trkpt lat="43.67459" lon="7.06654">
        <ele>187.38</ele>
        <time>2015-12-11T12:58:01Z</time>
      </trkpt>
      <trkpt lat="43.67476" lon="7.06644">
        <ele>187.9</ele>
        <time>2015-12-11T12:58:12Z</time>
      </trkpt>
      <trkpt lat="43.67494" lon="7.06635">
        <ele>189.42</ele>
        <time>2015-12-11T12:58:25Z</time>
      </trkpt>
      <trkpt lat="43.67512" lon="7.06626">
        <ele>190.75</ele>
        <time>2015-12-11T12:58:37Z</time>
      </trkpt>
      <trkpt lat="43.67531" lon="7.06623">
        <ele>192.58</ele>
        <time>2015-12-11T12:58:51Z</time>
      </trkpt>
      <trkpt lat="43.67549" lon="7.06622">
        <ele>196.08</ele>
        <time>2015-12-11T12:59:05Z</time>
      </trkpt>
      <trkpt lat="43.67567" lon="7.06615">
        <ele>199.95</ele>
        <time>2015-12-11T12:59:26Z</time>
      </trkpt>
      <trkpt lat="43.67584" lon="7.06606">
        <ele>204.18</ele>
        <time>2015-12-11T12:59:53Z</time>
      </trkpt>
      <trkpt lat="43.676" lon="7.06593">
        <ele>206.47</ele>
        <time>2015-12-11T13:00:22Z</time>
      </trkpt>
      <trkpt lat="43.6761" lon="7.06571">
        <ele>207.03</ele>
        <time>2015-12-11T13:00:34Z</time>
      </trkpt>
      <trkpt lat="43.6762" lon="7.06548">
        <ele>208.32</ele>
        <time>2015-12-11T13:00:45Z</time>
      </trkpt>
      <trkpt lat="43.67625" lon="7.06523">
        <ele>209.83</ele>
        <time>2015-12-11T13:00:56Z</time>
      </trkpt>
      <trkpt lat="43.67624" lon="7.06497">
        <ele>211.21</ele>
        <time>2015-12-11T13:01:08Z</time>
      </trkpt>
      <trkpt lat="43.67627" lon="7.0647">
        <ele>212.83</ele>
        <time>2015-12-11T13:01:21Z</time>
      </trkpt>
      <trkpt lat="43.67626" lon="7.06444">
        <ele>215.02</ele>
        <time>2015-12-11T13:01:35Z</time>
      </trkpt>
      <trkpt lat="43.67635" lon="7.06421">
        <ele>217.53</ele>
        <time>2015-12-11T13:01:47Z</time>
      </trkpt>
      <trkpt lat="43.67641" lon="7.06397">
        <ele>220.1</ele>
        <time>2015-12-11T13:02:00Z</time>
      </trkpt>
      <trkpt lat="43.67644" lon="7.06371">
        <ele>222.78</ele>
        <time>2015-12-11T13:02:13Z</time>
      </trkpt>
      <trkpt lat="43.67639" lon="7.06347">
        <ele>225.18</ele>
        <time>2015-12-11T13:02:25Z</time>
      </trkpt>
      <trkpt lat="43.67632" lon="7.06323">
        <ele>226.72</ele>
        <time>2015-12-11T13:02:36Z</time>
      </trkpt>
      <trkpt lat="43.67628" lon="7.06298">
        <ele>227.75</ele>
        <time>2015-12-11T13:02:46Z</time>
      </trkpt>
      <trkpt lat="43.67622" lon="7.06274">
        <ele>229.26</ele>
        <time>2015-12-11T13:02:59Z</time>
      </trkpt>
      <trkpt lat="43.67632" lon="7.06253">
        <ele>235.98</ele>
        <time>2015-12-11T13:04:17Z</time>
      </trkpt>
      <trkpt lat="43.67643" lon="7.06232">
        <ele>236.2</ele>
        <time>2015-12-11T13:04:44Z</time>
      </trkpt>
      <trkpt lat="43.67653" lon="7.06209">
        <ele>235.73</ele>
        <time>2015-12-11T13:04:54Z</time>
      </trkpt>
      <trkpt lat="43.67659" lon="7.06184">
        <ele>235.29</ele>
        <time>2015-12-11T13:05:02Z</time>
      </trkpt>
      <trkpt lat="43.67668" lon="7.06159">
        <ele>235.04</ele>
        <time>2015-12-11T13:05:10Z</time>
      </trkpt>
      <trkpt lat="43.6768" lon="7.06139">
        <ele>235.58</ele>
        <time>2015-12-11T13:06:03Z</time>
      </trkpt>
      <trkpt lat="43.67684" lon="7.06115">
        <ele>230.22</ele>
        <time>2015-12-11T13:10:19Z</time>
      </trkpt>
      <trkpt lat="43.67688" lon="7.06089">
        <ele>229.65</ele>
        <time>2015-12-11T13:10:30Z</time>
      </trkpt>
      <trkpt lat="43.67693" lon="7.06063">
        <ele>229.42</ele>
        <time>2015-12-11T13:10:38Z</time>
      </trkpt>
      <trkpt lat="43.67699" lon="7.06038">
        <ele>228.89</ele>
        <time>2015-12-11T13:10:44Z</time>
      </trkpt>
      <trkpt lat="43.67703" lon="7.06013">
        <ele>227.64</ele>
        <time>2015-12-11T13:10:51Z</time>
      </trkpt>
      <trkpt lat="43.67687" lon="7.05999">
        <ele>226.87</ele>
        <time>2015-12-11T13:11:07Z</time>
      </trkpt>
      <trkpt lat="43.67669" lon="7.0599">
        <ele>227.95</ele>
        <time>2015-12-11T13:11:15Z</time>
      </trkpt>
      <trkpt lat="43.6765" lon="7.05984">
        <ele>229.45</ele>
        <time>2015-12-11T13:11:29Z</time>
      </trkpt>
      <trkpt lat="43.67631" lon="7.05979">
        <ele>231.57</ele>
        <time>2015-12-11T13:11:46Z</time>
      </trkpt>
      <trkpt lat="43.67613" lon="7.05972">
        <ele>232.17</ele>
        <time>2015-12-11T13:11:55Z</time>
      </trkpt>
      <trkpt lat="43.67598" lon="7.05959">
        <ele>233.47</ele>
        <time>2015-12-11T13:12:08Z</time>
      </trkpt>
      <trkpt lat="43.67585" lon="7.0594">
        <ele>236.7</ele>
        <time>2015-12-11T13:12:28Z</time>
      </trkpt>
      <trkpt lat="43.67566" lon="7.05937">
        <ele>237.97</ele>
        <time>2015-12-11T13:12:40Z</time>
      </trkpt>
      <trkpt lat="43.67546" lon="7.05941">
        <ele>239.23</ele>
        <time>2015-12-11T13:12:53Z</time>
      </trkpt>
      <trkpt lat="43.6753" lon="7.05956">
        <ele>240.18</ele>
        <time>2015-12-11T13:13:02Z</time>
      </trkpt>
      <trkpt lat="43.67522" lon="7.05979">
        <ele>240.68</ele>
        <time>2015-12-11T13:13:12Z</time>
      </trkpt>
      <trkpt lat="43.67505" lon="7.0597">
        <ele>241.78</ele>
        <time>2015-12-11T13:13:24Z</time>
      </trkpt>
      <trkpt lat="43.67487" lon="7.05959">
        <ele>243.07</ele>
        <time>2015-12-11T13:13:33Z</time>
      </trkpt>
      <trkpt lat="43.67468" lon="7.0595">
        <ele>243.06</ele>
        <time>2015-12-11T13:13:43Z</time>
      </trkpt>
      <trkpt lat="43.6745" lon="7.05942">
        <ele>242.92</ele>
        <time>2015-12-11T13:13:53Z</time>
      </trkpt>
      <trkpt lat="43.67432" lon="7.05936">
        <ele>243.15</ele>
        <time>2015-12-11T13:14:02Z</time>
      </trkpt>
      <trkpt lat="43.67418" lon="7.05917">
        <ele>243.57</ele>
        <time>2015-12-11T13:14:09Z</time>
      </trkpt>
      <trkpt lat="43.67403" lon="7.059">
        <ele>243.53</ele>
        <time>2015-12-11T13:14:19Z</time>
      </trkpt>
      <trkpt lat="43.67382" lon="7.059">
        <ele>243.54</ele>
        <time>2015-12-11T13:14:28Z</time>
      </trkpt>
      <trkpt lat="43.67363" lon="7.05903">
        <ele>243.95</ele>
        <time>2015-12-11T13:14:38Z</time>
      </trkpt>
      <trkpt lat="43.67345" lon="7.05901">
        <ele>244.45</ele>
        <time>2015-12-11T13:14:47Z</time>
      </trkpt>
      <trkpt lat="43.67335" lon="7.05879">
        <ele>244.43</ele>
        <time>2015-12-11T13:14:56Z</time>
      </trkpt>
      <trkpt lat="43.67325" lon="7.05858">
        <ele>244.32</ele>
        <time>2015-12-11T13:15:05Z</time>
      </trkpt>
      <trkpt lat="43.67328" lon="7.05833">
        <ele>245.58</ele>
        <time>2015-12-11T13:15:29Z</time>
      </trkpt>
      <trkpt lat="43.67318" lon="7.05811">
        <ele>248.97</ele>
        <time>2015-12-11T13:15:55Z</time>
      </trkpt>
      <trkpt lat="43.67309" lon="7.05789">
        <ele>249.62</ele>
        <time>2015-12-11T13:16:12Z</time>
      </trkpt>
      <trkpt lat="43.673" lon="7.05767">
        <ele>249.84</ele>
        <time>2015-12-11T13:16:35Z</time>
      </trkpt>
      <trkpt lat="43.67296" lon="7.05743">
        <ele>251.61</ele>
        <time>2015-12-11T13:16:58Z</time>
      </trkpt>
      <trkpt lat="43.67286" lon="7.05722">
        <ele>253.91</ele>
        <time>2015-12-11T13:17:14Z</time>
      </trkpt>
      <trkpt lat="43.67281" lon="7.05698">
        <ele>256.28</ele>
        <time>2015-12-11T13:17:53Z</time>
      </trkpt>
      <trkpt lat="43.67271" lon="7.05676">
        <ele>257.79</ele>
        <time>2015-12-11T13:18:21Z</time>
      </trkpt>
      <trkpt lat="43.67263" lon="7.05653">
        <ele>257.72</ele>
        <time>2015-12-11T13:18:33Z</time>
      </trkpt>
      <trkpt lat="43.67265" lon="7.05628">
        <ele>258.22</ele>
        <time>2015-12-11T13:18:55Z</time>
      </trkpt>
      <trkpt lat="43.67281" lon="7.05614">
        <ele>259.8</ele>
        <time>2015-12-11T13:19:07Z</time>
      </trkpt>
      <trkpt lat="43.67298" lon="7.05603">
        <ele>261.03</ele>
        <time>2015-12-11T13:19:19Z</time>
      </trkpt>
      <trkpt lat="43.67314" lon="7.05591">
        <ele>261.39</ele>
        <time>2015-12-11T13:19:31Z</time>
      </trkpt>
      <trkpt lat="43.67333" lon="7.05587">
        <ele>261.75</ele>
        <time>2015-12-11T13:19:42Z</time>
      </trkpt>
      <trkpt lat="43.67347" lon="7.05604">
        <ele>261.85</ele>
        <time>2015-12-11T13:19:48Z</time>
      </trkpt>
      <trkpt lat="43.67365" lon="7.05603">
        <ele>261.72</ele>
        <time>2015-12-11T13:19:56Z</time>
      </trkpt>
      <trkpt lat="43.67382" lon="7.05587">
        <ele>262.39</ele>
        <time>2015-12-11T13:20:04Z</time>
      </trkpt>
      <trkpt lat="43.67389" lon="7.05562">
        <ele>262.36</ele>
        <time>2015-12-11T13:20:11Z</time>
      </trkpt>
      <trkpt lat="43.67397" lon="7.05539">
        <ele>262.2</ele>
        <time>2015-12-11T13:20:21Z</time>
      </trkpt>
      <trkpt lat="43.67413" lon="7.05528">
        <ele>267.15</ele>
        <time>2015-12-11T13:21:46Z</time>
      </trkpt>
      <trkpt lat="43.67428" lon="7.05511">
        <ele>267.11</ele>
        <time>2015-12-11T13:22:12Z</time>
      </trkpt>
      <trkpt lat="43.67444" lon="7.05496">
        <ele>264.82</ele>
        <time>2015-12-11T13:22:35Z</time>
      </trkpt>
      <trkpt lat="43.67461" lon="7.05502">
        <ele>263.34</ele>
        <time>2015-12-11T13:23:09Z</time>
      </trkpt>
      <trkpt lat="43.67479" lon="7.05492">
        <ele>262.09</ele>
        <time>2015-12-11T13:23:29Z</time>
      </trkpt>
      <trkpt lat="43.67498" lon="7.05487">
        <ele>260.79</ele>
        <time>2015-12-11T13:23:42Z</time>
      </trkpt>
      <trkpt lat="43.67513" lon="7.05501">
        <ele>258.99</ele>
        <time>2015-12-11T13:23:51Z</time>
      </trkpt>
      <trkpt lat="43.67515" lon="7.05526">
        <ele>258.07</ele>
        <time>2015-12-11T13:23:59Z</time>
      </trkpt>
      <trkpt lat="43.67522" lon="7.05551">
        <ele>258.17</ele>
        <time>2015-12-11T13:24:09Z</time>
      </trkpt>
      <trkpt lat="43.67537" lon="7.05566">
        <ele>258.4</ele>
        <time>2015-12-11T13:24:16Z</time>
      </trkpt>
      <trkpt lat="43.67555" lon="7.05563">
        <ele>257.57</ele>
        <time>2015-12-11T13:24:36Z</time>
      </trkpt>
      <trkpt lat="43.67573" lon="7.05561">
        <ele>258.29</ele>
        <time>2015-12-11T13:24:56Z</time>
      </trkpt>
      <trkpt lat="43.67591" lon="7.05559">
        <ele>258.91</ele>
        <time>2015-12-11T13:25:11Z</time>
      </trkpt>
      <trkpt lat="43.67608" lon="7.05567">
        <ele>259.53</ele>
        <time>2015-12-11T13:25:34Z</time>
      </trkpt>
      <trkpt lat="43.67625" lon="7.05578">
        <ele>259.44</ele>
        <time>2015-12-11T13:25:41Z</time>
      </trkpt>
      <trkpt lat="43.67642" lon="7.05589">
        <ele>257.81</ele>
        <time>2015-12-11T13:25:48Z</time>
      </trkpt>
      <trkpt lat="43.67658" lon="7.05602">
        <ele>257.78</ele>
        <time>2015-12-11T13:25:57Z</time>
      </trkpt>
      <trkpt lat="43.67674" lon="7.05616">
        <ele>257.73</ele>
        <time>2015-12-11T13:26:08Z</time>
      </trkpt>
      <trkpt lat="43.67693" lon="7.05614">
        <ele>256.97</ele>
        <time>2015-12-11T13:26:15Z</time>
      </trkpt>
      <trkpt lat="43.67707" lon="7.05635">
        <ele>255.8</ele>
        <time>2015-12-11T13:26:24Z</time>
      </trkpt>
      <trkpt lat="43.67727" lon="7.05642">
        <ele>254.41</ele>
        <time>2015-12-11T13:26:35Z</time>
      </trkpt>
      <trkpt lat="43.67746" lon="7.0565">
        <ele>253.6</ele>
        <time>2015-12-11T13:26:42Z</time>
      </trkpt>
      <trkpt lat="43.67764" lon="7.05658">
        <ele>253.41</ele>
        <time>2015-12-11T13:26:48Z</time>
      </trkpt>
      <trkpt lat="43.67784" lon="7.0566">
        <ele>253.18</ele>
        <time>2015-12-11T13:26:55Z</time>
      </trkpt>
      <trkpt lat="43.67804" lon="7.0566">
        <ele>252</ele>
        <time>2015-12-11T13:27:00Z</time>
      </trkpt>
      <trkpt lat="43.67821" lon="7.05652">
        <ele>250.8</ele>
        <time>2015-12-11T13:27:08Z</time>
      </trkpt>
      <trkpt lat="43.67839" lon="7.05639">
        <ele>250.22</ele>
        <time>2015-12-11T13:27:18Z</time>
      </trkpt>
      <trkpt lat="43.67857" lon="7.0563">
        <ele>249.24</ele>
        <time>2015-12-11T13:27:25Z</time>
      </trkpt>
      <trkpt lat="43.67875" lon="7.05635">
        <ele>247.73</ele>
        <time>2015-12-11T13:27:32Z</time>
      </trkpt>
      <trkpt lat="43.67893" lon="7.05624">
        <ele>245.74</ele>
        <time>2015-12-11T13:27:39Z</time>
      </trkpt>
      <trkpt lat="43.679" lon="7.056">
        <ele>240.98</ele>
        <time>2015-12-11T13:28:00Z</time>
      </trkpt>
      <trkpt lat="43.67908" lon="7.05576">
        <ele>240.41</ele>
        <time>2015-12-11T13:28:06Z</time>
      </trkpt>
      <trkpt lat="43.67918" lon="7.05553">
        <ele>238.69</ele>
        <time>2015-12-11T13:28:14Z</time>
      </trkpt>
      <trkpt lat="43.67929" lon="7.05528">
        <ele>237.14</ele>
        <time>2015-12-11T13:28:22Z</time>
      </trkpt>
      <trkpt lat="43.67938" lon="7.05501">
        <ele>235.64</ele>
        <time>2015-12-11T13:28:29Z</time>
      </trkpt>
      <trkpt lat="43.67948" lon="7.05479">
        <ele>234.1</ele>
        <time>2015-12-11T13:28:34Z</time>
      </trkpt>
      <trkpt lat="43.67946" lon="7.05449">
        <ele>232.36</ele>
        <time>2015-12-11T13:28:40Z</time>
      </trkpt>
      <trkpt lat="43.67964" lon="7.05449">
        <ele>227.35</ele>
        <time>2015-12-11T13:29:00Z</time>
      </trkpt>
      <trkpt lat="43.67982" lon="7.05454">
        <ele>225.9</ele>
        <time>2015-12-11T13:29:07Z</time>
      </trkpt>
      <trkpt lat="43.68001" lon="7.05461">
        <ele>223.51</ele>
        <time>2015-12-11T13:29:19Z</time>
      </trkpt>
      <trkpt lat="43.68005" lon="7.05485">
        <ele>222.6</ele>
        <time>2015-12-11T13:29:34Z</time>
      </trkpt>
      <trkpt lat="43.68023" lon="7.05491">
        <ele>224.24</ele>
        <time>2015-12-11T13:29:59Z</time>
      </trkpt>
      <trkpt lat="43.68042" lon="7.05497">
        <ele>226.27</ele>
        <time>2015-12-11T13:30:29Z</time>
      </trkpt>
      <trkpt lat="43.68058" lon="7.05512">
        <ele>226.28</ele>
        <time>2015-12-11T13:30:40Z</time>
      </trkpt>
      <trkpt lat="43.68049" lon="7.05535">
        <ele>226.72</ele>
        <time>2015-12-11T13:30:55Z</time>
      </trkpt>
      <trkpt lat="43.68046" lon="7.05561">
        <ele>226.98</ele>
        <time>2015-12-11T13:31:07Z</time>
      </trkpt>
      <trkpt lat="43.68058" lon="7.05579">
        <ele>227.51</ele>
        <time>2015-12-11T13:31:20Z</time>
      </trkpt>
      <trkpt lat="43.68074" lon="7.05563">
        <ele>228.07</ele>
        <time>2015-12-11T13:31:35Z</time>
      </trkpt>
      <trkpt lat="43.68076" lon="7.05538">
        <ele>228.67</ele>
        <time>2015-12-11T13:31:43Z</time>
      </trkpt>
      <trkpt lat="43.68085" lon="7.05516">
        <ele>229.43</ele>
        <time>2015-12-11T13:31:53Z</time>
      </trkpt>
      <trkpt lat="43.68102" lon="7.05523">
        <ele>230.23</ele>
        <time>2015-12-11T13:32:02Z</time>
      </trkpt>
      <trkpt lat="43.68118" lon="7.05538">
        <ele>230.34</ele>
        <time>2015-12-11T13:32:15Z</time>
      </trkpt>
      <trkpt lat="43.68127" lon="7.05564">
        <ele>231.16</ele>
        <time>2015-12-11T13:32:24Z</time>
      </trkpt>
      <trkpt lat="43.68134" lon="7.0559">
        <ele>231.81</ele>
        <time>2015-12-11T13:32:34Z</time>
      </trkpt>
      <trkpt lat="43.6813" lon="7.05615">
        <ele>232.46</ele>
        <time>2015-12-11T13:32:44Z</time>
      </trkpt>
      <trkpt lat="43.68127" lon="7.0564">
        <ele>233.2</ele>
        <time>2015-12-11T13:32:51Z</time>
      </trkpt>
      <trkpt lat="43.68119" lon="7.05666">
        <ele>234.42</ele>
        <time>2015-12-11T13:33:01Z</time>
      </trkpt>
      <trkpt lat="43.68116" lon="7.05691">
        <ele>235.16</ele>
        <time>2015-12-11T13:33:08Z</time>
      </trkpt>
      <trkpt lat="43.68103" lon="7.0571">
        <ele>236.05</ele>
        <time>2015-12-11T13:33:18Z</time>
      </trkpt>
      <trkpt lat="43.68099" lon="7.05738">
        <ele>236.33</ele>
        <time>2015-12-11T13:33:26Z</time>
      </trkpt>
      <trkpt lat="43.68099" lon="7.05763">
        <ele>236.16</ele>
        <time>2015-12-11T13:33:33Z</time>
      </trkpt>
      <trkpt lat="43.68082" lon="7.05774">
        <ele>236.11</ele>
        <time>2015-12-11T13:33:42Z</time>
      </trkpt>
      <trkpt lat="43.68064" lon="7.05784">
        <ele>236.26</ele>
        <time>2015-12-11T13:33:52Z</time>
      </trkpt>
      <trkpt lat="43.6805" lon="7.05802">
        <ele>236.11</ele>
        <time>2015-12-11T13:34:01Z</time>
      </trkpt>
      <trkpt lat="43.68037" lon="7.05822">
        <ele>235.66</ele>
        <time>2015-12-11T13:34:11Z</time>
      </trkpt>
      <trkpt lat="43.68033" lon="7.05849">
        <ele>234.94</ele>
        <time>2015-12-11T13:34:20Z</time>
      </trkpt>
      <trkpt lat="43.68026" lon="7.05872">
        <ele>234.02</ele>
        <time>2015-12-11T13:34:28Z</time>
      </trkpt>
      <trkpt lat="43.68018" lon="7.05895">
        <ele>232.88</ele>
        <time>2015-12-11T13:34:36Z</time>
      </trkpt>
      <trkpt lat="43.68004" lon="7.05913">
        <ele>230.82</ele>
        <time>2015-12-11T13:34:47Z</time>
      </trkpt>
      <trkpt lat="43.67988" lon="7.05924">
        <ele>229.46</ele>
        <time>2015-12-11T13:34:56Z</time>
      </trkpt>
      <trkpt lat="43.67969" lon="7.0593">
        <ele>228.39</ele>
        <time>2015-12-11T13:35:08Z</time>
      </trkpt>
      <trkpt lat="43.67955" lon="7.05912">
        <ele>226.86</ele>
        <time>2015-12-11T13:35:16Z</time>
      </trkpt>
      <trkpt lat="43.67936" lon="7.05901">
        <ele>222.62</ele>
        <time>2015-12-11T13:38:31Z</time>
      </trkpt>
      <trkpt lat="43.67939" lon="7.05926">
        <ele>222.76</ele>
        <time>2015-12-11T13:38:47Z</time>
      </trkpt>
      <trkpt lat="43.67942" lon="7.05951">
        <ele>228.95</ele>
        <time>2015-12-11T13:41:31Z</time>
      </trkpt>
      <trkpt lat="43.67949" lon="7.05975">
        <ele>228.55</ele>
        <time>2015-12-11T13:41:41Z</time>
      </trkpt>
      <trkpt lat="43.67948" lon="7.06">
        <ele>228.16</ele>
        <time>2015-12-11T13:41:50Z</time>
      </trkpt>
      <trkpt lat="43.67955" lon="7.06024">
        <ele>227.55</ele>
        <time>2015-12-11T13:42:01Z</time>
      </trkpt>
      <trkpt lat="43.67967" lon="7.06045">
        <ele>227.42</ele>
        <time>2015-12-11T13:42:12Z</time>
      </trkpt>
      <trkpt lat="43.67976" lon="7.06068">
        <ele>227.76</ele>
        <time>2015-12-11T13:42:24Z</time>
      </trkpt>
      <trkpt lat="43.67984" lon="7.06091">
        <ele>228.59</ele>
        <time>2015-12-11T13:42:34Z</time>
      </trkpt>
      <trkpt lat="43.67992" lon="7.06117">
        <ele>228.24</ele>
        <time>2015-12-11T13:42:45Z</time>
      </trkpt>
      <trkpt lat="43.67999" lon="7.06141">
        <ele>227.85</ele>
        <time>2015-12-11T13:42:55Z</time>
      </trkpt>
      <trkpt lat="43.68008" lon="7.06163">
        <ele>227.75</ele>
        <time>2015-12-11T13:43:06Z</time>
      </trkpt>
      <trkpt lat="43.68021" lon="7.06183">
        <ele>228.74</ele>
        <time>2015-12-11T13:43:17Z</time>
      </trkpt>
      <trkpt lat="43.68037" lon="7.06198">
        <ele>229.85</ele>
        <time>2015-12-11T13:43:28Z</time>
      </trkpt>
      <trkpt lat="43.68048" lon="7.06218">
        <ele>231.53</ele>
        <time>2015-12-11T13:43:48Z</time>
      </trkpt>
      <trkpt lat="43.6805" lon="7.06244">
        <ele>236.02</ele>
        <time>2015-12-11T13:44:15Z</time>
      </trkpt>
      <trkpt lat="43.68061" lon="7.06263">
        <ele>238.36</ele>
        <time>2015-12-11T13:44:29Z</time>
      </trkpt>
      <trkpt lat="43.68077" lon="7.0628">
        <ele>239.87</ele>
        <time>2015-12-11T13:44:39Z</time>
      </trkpt>
      <trkpt lat="43.68091" lon="7.06299">
        <ele>242.39</ele>
        <time>2015-12-11T13:44:49Z</time>
      </trkpt>
      <trkpt lat="43.68111" lon="7.06297">
        <ele>242.61</ele>
        <time>2015-12-11T13:45:07Z</time>
      </trkpt>
      <trkpt lat="43.6813" lon="7.06295">
        <ele>244.68</ele>
        <time>2015-12-11T13:45:24Z</time>
      </trkpt>
      <trkpt lat="43.68145" lon="7.06282">
        <ele>245.57</ele>
        <time>2015-12-11T13:45:34Z</time>
      </trkpt>
      <trkpt lat="43.68161" lon="7.06268">
        <ele>246.64</ele>
        <time>2015-12-11T13:45:45Z</time>
      </trkpt>
      <trkpt lat="43.68175" lon="7.06252">
        <ele>247.86</ele>
        <time>2015-12-11T13:45:55Z</time>
      </trkpt>
      <trkpt lat="43.68193" lon="7.06245">
        <ele>248.4</ele>
        <time>2015-12-11T13:46:12Z</time>
      </trkpt>
      <trkpt lat="43.682" lon="7.06221">
        <ele>247.35</ele>
        <time>2015-12-11T13:46:30Z</time>
      </trkpt>
      <trkpt lat="43.68213" lon="7.06202">
        <ele>246.12</ele>
        <time>2015-12-11T13:46:41Z</time>
      </trkpt>
      <trkpt lat="43.68216" lon="7.06175">
        <ele>246.78</ele>
        <time>2015-12-11T13:47:24Z</time>
      </trkpt>
      <trkpt lat="43.68206" lon="7.06154">
        <ele>246.21</ele>
        <time>2015-12-11T13:47:34Z</time>
      </trkpt>
      <trkpt lat="43.68218" lon="7.06174">
        <ele>243.1</ele>
        <time>2015-12-11T13:48:37Z</time>
      </trkpt>
      <trkpt lat="43.68215" lon="7.062">
        <ele>242.73</ele>
        <time>2015-12-11T13:48:46Z</time>
      </trkpt>
      <trkpt lat="43.68204" lon="7.06221">
        <ele>241.72</ele>
        <time>2015-12-11T13:48:56Z</time>
      </trkpt>
      <trkpt lat="43.68204" lon="7.06247">
        <ele>241.01</ele>
        <time>2015-12-11T13:49:05Z</time>
      </trkpt>
      <trkpt lat="43.68203" lon="7.06273">
        <ele>240.91</ele>
        <time>2015-12-11T13:49:15Z</time>
      </trkpt>
      <trkpt lat="43.68202" lon="7.06299">
        <ele>241.36</ele>
        <time>2015-12-11T13:49:26Z</time>
      </trkpt>
      <trkpt lat="43.68205" lon="7.06326">
        <ele>241.94</ele>
        <time>2015-12-11T13:49:35Z</time>
      </trkpt>
      <trkpt lat="43.6819" lon="7.06342">
        <ele>242.2</ele>
        <time>2015-12-11T13:49:45Z</time>
      </trkpt>
      <trkpt lat="43.68172" lon="7.06352">
        <ele>242.28</ele>
        <time>2015-12-11T13:49:53Z</time>
      </trkpt>
      <trkpt lat="43.68157" lon="7.06373">
        <ele>242.38</ele>
        <time>2015-12-11T13:50:01Z</time>
      </trkpt>
      <trkpt lat="43.68145" lon="7.06392">
        <ele>242.45</ele>
        <time>2015-12-11T13:50:07Z</time>
      </trkpt>
      <trkpt lat="43.68135" lon="7.06415">
        <ele>242.17</ele>
        <time>2015-12-11T13:50:14Z</time>
      </trkpt>
      <trkpt lat="43.68121" lon="7.06435">
        <ele>241.74</ele>
        <time>2015-12-11T13:50:22Z</time>
      </trkpt>
      <trkpt lat="43.68103" lon="7.06443">
        <ele>243.2</ele>
        <time>2015-12-11T13:50:37Z</time>
      </trkpt>
      <trkpt lat="43.68094" lon="7.06468">
        <ele>245.8</ele>
        <time>2015-12-11T13:50:57Z</time>
      </trkpt>
      <trkpt lat="43.68088" lon="7.06492">
        <ele>245.92</ele>
        <time>2015-12-11T13:51:06Z</time>
      </trkpt>
      <trkpt lat="43.68075" lon="7.06513">
        <ele>246.05</ele>
        <time>2015-12-11T13:51:14Z</time>
      </trkpt>
      <trkpt lat="43.68064" lon="7.06533">
        <ele>246.19</ele>
        <time>2015-12-11T13:51:23Z</time>
      </trkpt>
      <trkpt lat="43.68055" lon="7.06555">
        <ele>246.47</ele>
        <time>2015-12-11T13:51:30Z</time>
      </trkpt>
      <trkpt lat="43.68046" lon="7.06578">
        <ele>246.19</ele>
        <time>2015-12-11T13:51:39Z</time>
      </trkpt>
      <trkpt lat="43.68034" lon="7.06601">
        <ele>245.56</ele>
        <time>2015-12-11T13:51:47Z</time>
      </trkpt>
      <trkpt lat="43.6802" lon="7.0662">
        <ele>244.55</ele>
        <time>2015-12-11T13:51:55Z</time>
      </trkpt>
      <trkpt lat="43.68019" lon="7.06645">
        <ele>243.5</ele>
        <time>2015-12-11T13:52:22Z</time>
      </trkpt>
      <trkpt lat="43.68032" lon="7.06664">
        <ele>242.15</ele>
        <time>2015-12-11T13:52:35Z</time>
      </trkpt>
      <trkpt lat="43.68037" lon="7.06688">
        <ele>241.63</ele>
        <time>2015-12-11T13:52:50Z</time>
      </trkpt>
      <trkpt lat="43.68055" lon="7.06693">
        <ele>241.43</ele>
        <time>2015-12-11T13:53:03Z</time>
      </trkpt>
      <trkpt lat="43.68074" lon="7.06702">
        <ele>240.85</ele>
        <time>2015-12-11T13:53:10Z</time>
      </trkpt>
      <trkpt lat="43.68092" lon="7.06714">
        <ele>239.29</ele>
        <time>2015-12-11T13:53:18Z</time>
      </trkpt>
      <trkpt lat="43.6811" lon="7.06718">
        <ele>237</ele>
        <time>2015-12-11T13:53:28Z</time>
      </trkpt>
      <trkpt lat="43.68131" lon="7.0672">
        <ele>236.05</ele>
        <time>2015-12-11T13:53:46Z</time>
      </trkpt>
      <trkpt lat="43.68146" lon="7.06733">
        <ele>235.03</ele>
        <time>2015-12-11T13:54:03Z</time>
      </trkpt>
      <trkpt lat="43.68156" lon="7.06756">
        <ele>233.11</ele>
        <time>2015-12-11T13:54:13Z</time>
      </trkpt>
      <trkpt lat="43.68157" lon="7.06783">
        <ele>230.28</ele>
        <time>2015-12-11T13:54:24Z</time>
      </trkpt>
      <trkpt lat="43.68151" lon="7.06807">
        <ele>227.1</ele>
        <time>2015-12-11T13:54:37Z</time>
      </trkpt>
      <trkpt lat="43.68146" lon="7.06833">
        <ele>223.87</ele>
        <time>2015-12-11T13:54:50Z</time>
      </trkpt>
      <trkpt lat="43.68159" lon="7.06852">
        <ele>220.64</ele>
        <time>2015-12-11T13:55:02Z</time>
      </trkpt>
      <trkpt lat="43.68175" lon="7.06868">
        <ele>217.07</ele>
        <time>2015-12-11T13:55:14Z</time>
      </trkpt>
      <trkpt lat="43.68194" lon="7.06878">
        <ele>214.64</ele>
        <time>2015-12-11T13:55:23Z</time>
      </trkpt>
      <trkpt lat="43.68213" lon="7.06881">
        <ele>212.59</ele>
        <time>2015-12-11T13:55:34Z</time>
      </trkpt>
      <trkpt lat="43.68232" lon="7.06882">
        <ele>210.61</ele>
        <time>2015-12-11T13:55:43Z</time>
      </trkpt>
      <trkpt lat="43.6825" lon="7.0688">
        <ele>206.09</ele>
        <time>2015-12-11T13:56:03Z</time>
      </trkpt>
      <trkpt lat="43.68268" lon="7.06887">
        <ele>204.4</ele>
        <time>2015-12-11T13:56:14Z</time>
      </trkpt>
      <trkpt lat="43.68285" lon="7.06899">
        <ele>203</ele>
        <time>2015-12-11T13:56:23Z</time>
      </trkpt>
      <trkpt lat="43.68304" lon="7.06905">
        <ele>199.24</ele>
        <time>2015-12-11T13:56:37Z</time>
      </trkpt>
      <trkpt lat="43.68312" lon="7.06928">
        <ele>187.88</ele>
        <time>2015-12-11T13:58:02Z</time>
      </trkpt>
      <trkpt lat="43.68293" lon="7.06931">
        <ele>184.87</ele>
        <time>2015-12-11T14:02:26Z</time>
      </trkpt>
      <trkpt lat="43.68274" lon="7.06939">
        <ele>183.79</ele>
        <time>2015-12-11T14:02:36Z</time>
      </trkpt>
      <trkpt lat="43.68255" lon="7.06945">
        <ele>182.95</ele>
        <time>2015-12-11T14:02:46Z</time>
      </trkpt>
      <trkpt lat="43.68237" lon="7.06952">
        <ele>182.72</ele>
        <time>2015-12-11T14:02:56Z</time>
      </trkpt>
      <trkpt lat="43.6822" lon="7.06959">
        <ele>182.47</ele>
        <time>2015-12-11T14:03:04Z</time>
      </trkpt>
      <trkpt lat="43.682" lon="7.06962">
        <ele>183.12</ele>
        <time>2015-12-11T14:03:13Z</time>
      </trkpt>
      <trkpt lat="43.6818" lon="7.06962">
        <ele>183.53</ele>
        <time>2015-12-11T14:03:21Z</time>
      </trkpt>
      <trkpt lat="43.68162" lon="7.06963">
        <ele>183.9</ele>
        <time>2015-12-11T14:03:27Z</time>
      </trkpt>
      <trkpt lat="43.68143" lon="7.06962">
        <ele>183.74</ele>
        <time>2015-12-11T14:03:33Z</time>
      </trkpt>
      <trkpt lat="43.68124" lon="7.06957">
        <ele>183.49</ele>
        <time>2015-12-11T14:03:39Z</time>
      </trkpt>
      <trkpt lat="43.68102" lon="7.06956">
        <ele>183.07</ele>
        <time>2015-12-11T14:03:45Z</time>
      </trkpt>
      <trkpt lat="43.68081" lon="7.06955">
        <ele>182.54</ele>
        <time>2015-12-11T14:03:51Z</time>
      </trkpt>
      <trkpt lat="43.68063" lon="7.06955">
        <ele>182.29</ele>
        <time>2015-12-11T14:03:56Z</time>
      </trkpt>
      <trkpt lat="43.68043" lon="7.06958">
        <ele>182.48</ele>
        <time>2015-12-11T14:04:02Z</time>
      </trkpt>
      <trkpt lat="43.68023" lon="7.06961">
        <ele>182.77</ele>
        <time>2015-12-11T14:04:08Z</time>
      </trkpt>
      <trkpt lat="43.68004" lon="7.06962">
        <ele>183.08</ele>
        <time>2015-12-11T14:04:14Z</time>
      </trkpt>
      <trkpt lat="43.67985" lon="7.06958">
        <ele>182.99</ele>
        <time>2015-12-11T14:04:20Z</time>
      </trkpt>
      <trkpt lat="43.67966" lon="7.06956">
        <ele>182.8</ele>
        <time>2015-12-11T14:04:26Z</time>
      </trkpt>
      <trkpt lat="43.67946" lon="7.06955">
        <ele>182.73</ele>
        <time>2015-12-11T14:04:33Z</time>
      </trkpt>
      <trkpt lat="43.67928" lon="7.06953">
        <ele>182.63</ele>
        <time>2015-12-11T14:04:39Z</time>
      </trkpt>
      <trkpt lat="43.67909" lon="7.0695">
        <ele>182.77</ele>
        <time>2015-12-11T14:04:47Z</time>
      </trkpt>
      <trkpt lat="43.67889" lon="7.06949">
        <ele>184.31</ele>
        <time>2015-12-11T14:04:55Z</time>
      </trkpt>
      <trkpt lat="43.67869" lon="7.06943">
        <ele>184.91</ele>
        <time>2015-12-11T14:05:02Z</time>
      </trkpt>
      <trkpt lat="43.67851" lon="7.0694">
        <ele>185.09</ele>
        <time>2015-12-11T14:05:08Z</time>
      </trkpt>
      <trkpt lat="43.67833" lon="7.06938">
        <ele>185.3</ele>
        <time>2015-12-11T14:05:15Z</time>
      </trkpt>
      <trkpt lat="43.67814" lon="7.06935">
        <ele>185.73</ele>
        <time>2015-12-11T14:05:23Z</time>
      </trkpt>
      <trkpt lat="43.67796" lon="7.06934">
        <ele>191.72</ele>
        <time>2015-12-11T14:06:02Z</time>
      </trkpt>
      <trkpt lat="43.67778" lon="7.06928">
        <ele>192.46</ele>
        <time>2015-12-11T14:06:10Z</time>
      </trkpt>
      <trkpt lat="43.67759" lon="7.0692">
        <ele>192.76</ele>
        <time>2015-12-11T14:06:18Z</time>
      </trkpt>
      <trkpt lat="43.6774" lon="7.0691">
        <ele>193.04</ele>
        <time>2015-12-11T14:06:26Z</time>
      </trkpt>
      <trkpt lat="43.67723" lon="7.06899">
        <ele>193.13</ele>
        <time>2015-12-11T14:06:33Z</time>
      </trkpt>
      <trkpt lat="43.67705" lon="7.0689">
        <ele>193.16</ele>
        <time>2015-12-11T14:06:40Z</time>
      </trkpt>
      <trkpt lat="43.67688" lon="7.06879">
        <ele>193.27</ele>
        <time>2015-12-11T14:06:47Z</time>
      </trkpt>
      <trkpt lat="43.6767" lon="7.06869">
        <ele>193.29</ele>
        <time>2015-12-11T14:06:55Z</time>
      </trkpt>
      <trkpt lat="43.67653" lon="7.06857">
        <ele>193.86</ele>
        <time>2015-12-11T14:07:03Z</time>
      </trkpt>
      <trkpt lat="43.67637" lon="7.06844">
        <ele>193.88</ele>
        <time>2015-12-11T14:07:11Z</time>
      </trkpt>
      <trkpt lat="43.67621" lon="7.06828">
        <ele>193.75</ele>
        <time>2015-12-11T14:07:19Z</time>
      </trkpt>
      <trkpt lat="43.67605" lon="7.06812">
        <ele>194.41</ele>
        <time>2015-12-11T14:07:28Z</time>
      </trkpt>
      <trkpt lat="43.67589" lon="7.06797">
        <ele>195.26</ele>
        <time>2015-12-11T14:07:35Z</time>
      </trkpt>
      <trkpt lat="43.67573" lon="7.06781">
        <ele>195.88</ele>
        <time>2015-12-11T14:07:41Z</time>
      </trkpt>
      <trkpt lat="43.67559" lon="7.06765">
        <ele>196.26</ele>
        <time>2015-12-11T14:07:47Z</time>
      </trkpt>
      <trkpt lat="43.67545" lon="7.06747">
        <ele>196.55</ele>
        <time>2015-12-11T14:07:53Z</time>
      </trkpt>
      <trkpt lat="43.67536" lon="7.06724">
        <ele>196.27</ele>
        <time>2015-12-11T14:07:59Z</time>
      </trkpt>
      <trkpt lat="43.67533" lon="7.06698">
        <ele>196.26</ele>
        <time>2015-12-11T14:08:05Z</time>
      </trkpt>
      <trkpt lat="43.67532" lon="7.06672">
        <ele>196.41</ele>
        <time>2015-12-11T14:08:11Z</time>
      </trkpt>
      <trkpt lat="43.67534" lon="7.06646">
        <ele>196.58</ele>
        <time>2015-12-11T14:08:19Z</time>
      </trkpt>
      <trkpt lat="43.67532" lon="7.0662">
        <ele>192.13</ele>
        <time>2015-12-11T14:10:30Z</time>
      </trkpt>
      <trkpt lat="43.67512" lon="7.06623">
        <ele>192.44</ele>
        <time>2015-12-11T14:10:38Z</time>
      </trkpt>
      <trkpt lat="43.67496" lon="7.06636">
        <ele>193.3</ele>
        <time>2015-12-11T14:10:45Z</time>
      </trkpt>
      <trkpt lat="43.67477" lon="7.06647">
        <ele>192.3</ele>
        <time>2015-12-11T14:10:50Z</time>
      </trkpt>
      <trkpt lat="43.6746" lon="7.0666">
        <ele>191.25</ele>
        <time>2015-12-11T14:10:55Z</time>
      </trkpt>
      <trkpt lat="43.67443" lon="7.06672">
        <ele>189.87</ele>
        <time>2015-12-11T14:11:00Z</time>
      </trkpt>
      <trkpt lat="43.67427" lon="7.06689">
        <ele>186.68</ele>
        <time>2015-12-11T14:11:05Z</time>
      </trkpt>
      <trkpt lat="43.67413" lon="7.06706">
        <ele>185.45</ele>
        <time>2015-12-11T14:11:09Z</time>
      </trkpt>
      <trkpt lat="43.67398" lon="7.06724">
        <ele>182.69</ele>
        <time>2015-12-11T14:11:13Z</time>
      </trkpt>
      <trkpt lat="43.67382" lon="7.06741">
        <ele>181.41</ele>
        <time>2015-12-11T14:11:17Z</time>
      </trkpt>
      <trkpt lat="43.67364" lon="7.06756">
        <ele>179.82</ele>
        <time>2015-12-11T14:11:21Z</time>
      </trkpt>
      <trkpt lat="43.67346" lon="7.06767">
        <ele>179.37</ele>
        <time>2015-12-11T14:11:24Z</time>
      </trkpt>
      <trkpt lat="43.67328" lon="7.06774">
        <ele>177.39</ele>
        <time>2015-12-11T14:11:27Z</time>
      </trkpt>
      <trkpt lat="43.67305" lon="7.06777">
        <ele>172.95</ele>
        <time>2015-12-11T14:11:31Z</time>
      </trkpt>
      <trkpt lat="43.67286" lon="7.06772">
        <ele>169.71</ele>
        <time>2015-12-11T14:11:35Z</time>
      </trkpt>
      <trkpt lat="43.67267" lon="7.06764">
        <ele>165.85</ele>
        <time>2015-12-11T14:11:39Z</time>
      </trkpt>
      <trkpt lat="43.67246" lon="7.06762">
        <ele>164.46</ele>
        <time>2015-12-11T14:11:44Z</time>
      </trkpt>
      <trkpt lat="43.67226" lon="7.06754">
        <ele>163.99</ele>
        <time>2015-12-11T14:12:02Z</time>
      </trkpt>
      <trkpt lat="43.67206" lon="7.06756">
        <ele>163.72</ele>
        <time>2015-12-11T14:12:08Z</time>
      </trkpt>
      <trkpt lat="43.67185" lon="7.06761">
        <ele>162.02</ele>
        <time>2015-12-11T14:12:13Z</time>
      </trkpt>
      <trkpt lat="43.67167" lon="7.06774">
        <ele>161.53</ele>
        <time>2015-12-11T14:12:16Z</time>
      </trkpt>
      <trkpt lat="43.67144" lon="7.06778">
        <ele>159.06</ele>
        <time>2015-12-11T14:12:20Z</time>
      </trkpt>
      <trkpt lat="43.67124" lon="7.06778">
        <ele>158.04</ele>
        <time>2015-12-11T14:12:25Z</time>
      </trkpt>
      <trkpt lat="43.67106" lon="7.06778">
        <ele>158.17</ele>
        <time>2015-12-11T14:12:31Z</time>
      </trkpt>
      <trkpt lat="43.67087" lon="7.06777">
        <ele>158.49</ele>
        <time>2015-12-11T14:12:37Z</time>
      </trkpt>
      <trkpt lat="43.67065" lon="7.06776">
        <ele>159.31</ele>
        <time>2015-12-11T14:12:44Z</time>
      </trkpt>
      <trkpt lat="43.67046" lon="7.06776">
        <ele>159.67</ele>
        <time>2015-12-11T14:12:49Z</time>
      </trkpt>
      <trkpt lat="43.67027" lon="7.06775">
        <ele>159.74</ele>
        <time>2015-12-11T14:12:55Z</time>
      </trkpt>
      <trkpt lat="43.67008" lon="7.06773">
        <ele>159.94</ele>
        <time>2015-12-11T14:13:01Z</time>
      </trkpt>
      <trkpt lat="43.66989" lon="7.06773">
        <ele>161.1</ele>
        <time>2015-12-11T14:13:12Z</time>
      </trkpt>
      <trkpt lat="43.66989" lon="7.068">
        <ele>161.6</ele>
        <time>2015-12-11T14:13:20Z</time>
      </trkpt>
      <trkpt lat="43.6698" lon="7.06822">
        <ele>161.97</ele>
        <time>2015-12-11T14:13:28Z</time>
      </trkpt>
      <trkpt lat="43.66961" lon="7.06831">
        <ele>162.47</ele>
        <time>2015-12-11T14:13:37Z</time>
      </trkpt>
      <trkpt lat="43.66947" lon="7.06849">
        <ele>164.6</ele>
        <time>2015-12-11T14:13:52Z</time>
      </trkpt>
      <trkpt lat="43.66927" lon="7.06849">
        <ele>165.61</ele>
        <time>2015-12-11T14:14:01Z</time>
      </trkpt>
      <trkpt lat="43.66908" lon="7.06851">
        <ele>165.78</ele>
        <time>2015-12-11T14:14:08Z</time>
      </trkpt>
      <trkpt lat="43.66895" lon="7.0687">
        <ele>165.97</ele>
        <time>2015-12-11T14:14:14Z</time>
      </trkpt>
      <trkpt lat="43.66901" lon="7.06894">
        <ele>166.3</ele>
        <time>2015-12-11T14:14:22Z</time>
      </trkpt>
      <trkpt lat="43.66899" lon="7.06921">
        <ele>167.32</ele>
        <time>2015-12-11T14:14:30Z</time>
      </trkpt>
      <trkpt lat="43.6689" lon="7.06947">
        <ele>168.68</ele>
        <time>2015-12-11T14:14:38Z</time>
      </trkpt>
      <trkpt lat="43.66877" lon="7.06965">
        <ele>169.78</ele>
        <time>2015-12-11T14:14:44Z</time>
      </trkpt>
      <trkpt lat="43.66862" lon="7.06982">
        <ele>170.29</ele>
        <time>2015-12-11T14:14:50Z</time>
      </trkpt>
      <trkpt lat="43.66845" lon="7.06997">
        <ele>170.33</ele>
        <time>2015-12-11T14:14:56Z</time>
      </trkpt>
      <trkpt lat="43.66829" lon="7.07012">
        <ele>170.9</ele>
        <time>2015-12-11T14:15:02Z</time>
      </trkpt>
      <trkpt lat="43.66816" lon="7.07031">
        <ele>171.54</ele>
        <time>2015-12-11T14:15:09Z</time>
      </trkpt>
      <trkpt lat="43.66803" lon="7.07052">
        <ele>172.3</ele>
        <time>2015-12-11T14:15:17Z</time>
      </trkpt>
      <trkpt lat="43.6679" lon="7.07071">
        <ele>173.32</ele>
        <time>2015-12-11T14:15:25Z</time>
      </trkpt>
      <trkpt lat="43.6677" lon="7.07073">
        <ele>173.93</ele>
        <time>2015-12-11T14:15:35Z</time>
      </trkpt>
      <trkpt lat="43.66752" lon="7.07064">
        <ele>174.59</ele>
        <time>2015-12-11T14:15:43Z</time>
      </trkpt>
      <trkpt lat="43.66735" lon="7.07055">
        <ele>175.4</ele>
        <time>2015-12-11T14:15:50Z</time>
      </trkpt>
      <trkpt lat="43.66716" lon="7.07045">
        <ele>176.41</ele>
        <time>2015-12-11T14:15:58Z</time>
      </trkpt>
      <trkpt lat="43.66699" lon="7.07034">
        <ele>177.08</ele>
        <time>2015-12-11T14:16:05Z</time>
      </trkpt>
      <trkpt lat="43.66695" lon="7.07059">
        <ele>177.74</ele>
        <time>2015-12-11T14:16:16Z</time>
      </trkpt>
      <trkpt lat="43.66701" lon="7.07087">
        <ele>178.46</ele>
        <time>2015-12-11T14:16:22Z</time>
      </trkpt>
      <trkpt lat="43.66703" lon="7.07115">
        <ele>179.18</ele>
        <time>2015-12-11T14:16:28Z</time>
      </trkpt>
      <trkpt lat="43.66705" lon="7.07141">
        <ele>179.36</ele>
        <time>2015-12-11T14:16:34Z</time>
      </trkpt>
      <trkpt lat="43.66706" lon="7.0717">
        <ele>179.45</ele>
        <time>2015-12-11T14:16:41Z</time>
      </trkpt>
      <trkpt lat="43.66711" lon="7.07197">
        <ele>179.48</ele>
        <time>2015-12-11T14:16:48Z</time>
      </trkpt>
      <trkpt lat="43.66718" lon="7.07221">
        <ele>179.85</ele>
        <time>2015-12-11T14:16:54Z</time>
      </trkpt>
      <trkpt lat="43.66732" lon="7.07242">
        <ele>180.17</ele>
        <time>2015-12-11T14:17:00Z</time>
      </trkpt>
      <trkpt lat="43.66746" lon="7.07264">
        <ele>180.8</ele>
        <time>2015-12-11T14:17:06Z</time>
      </trkpt>
      <trkpt lat="43.6676" lon="7.07284">
        <ele>181.42</ele>
        <time>2015-12-11T14:17:13Z</time>
      </trkpt>
      <trkpt lat="43.66775" lon="7.07303">
        <ele>182.22</ele>
        <time>2015-12-11T14:17:20Z</time>
      </trkpt>
      <trkpt lat="43.6679" lon="7.07319">
        <ele>183.01</ele>
        <time>2015-12-11T14:17:26Z</time>
      </trkpt>
      <trkpt lat="43.66804" lon="7.07336">
        <ele>183.96</ele>
        <time>2015-12-11T14:17:33Z</time>
      </trkpt>
      <trkpt lat="43.66818" lon="7.07356">
        <ele>184.74</ele>
        <time>2015-12-11T14:17:40Z</time>
      </trkpt>
      <trkpt lat="43.66833" lon="7.07371">
        <ele>185.33</ele>
        <time>2015-12-11T14:17:47Z</time>
      </trkpt>
      <trkpt lat="43.66848" lon="7.07386">
        <ele>186.02</ele>
        <time>2015-12-11T14:17:54Z</time>
      </trkpt>
      <trkpt lat="43.66862" lon="7.07405">
        <ele>187.11</ele>
        <time>2015-12-11T14:18:04Z</time>
      </trkpt>
      <trkpt lat="43.66874" lon="7.07426">
        <ele>188.3</ele>
        <time>2015-12-11T14:18:14Z</time>
      </trkpt>
      <trkpt lat="43.6689" lon="7.07442">
        <ele>188.93</ele>
        <time>2015-12-11T14:18:25Z</time>
      </trkpt>
      <trkpt lat="43.66902" lon="7.07463">
        <ele>190.63</ele>
        <time>2015-12-11T14:18:36Z</time>
      </trkpt>
      <trkpt lat="43.66901" lon="7.07491">
        <ele>193.11</ele>
        <time>2015-12-11T14:18:50Z</time>
      </trkpt>
      <trkpt lat="43.66906" lon="7.07517">
        <ele>195.46</ele>
        <time>2015-12-11T14:19:01Z</time>
      </trkpt>
      <trkpt lat="43.66912" lon="7.07542">
        <ele>196.9</ele>
        <time>2015-12-11T14:19:08Z</time>
      </trkpt>
      <trkpt lat="43.66909" lon="7.07567">
        <ele>197.9</ele>
        <time>2015-12-11T14:19:15Z</time>
      </trkpt>
      <trkpt lat="43.66895" lon="7.07583">
        <ele>200.74</ele>
        <time>2015-12-11T14:19:19Z</time>
      </trkpt>
      <trkpt lat="43.66881" lon="7.07602">
        <ele>201.17</ele>
        <time>2015-12-11T14:19:22Z</time>
      </trkpt>
      <trkpt lat="43.66875" lon="7.07633">
        <ele>200.15</ele>
        <time>2015-12-11T14:19:25Z</time>
      </trkpt>
      <trkpt lat="43.66878" lon="7.07665">
        <ele>198.5</ele>
        <time>2015-12-11T14:19:28Z</time>
      </trkpt>
      <trkpt lat="43.66882" lon="7.07692">
        <ele>195.64</ele>
        <time>2015-12-11T14:19:32Z</time>
      </trkpt>
      <trkpt lat="43.66871" lon="7.07719">
        <ele>193.14</ele>
        <time>2015-12-11T14:19:36Z</time>
      </trkpt>
      <trkpt lat="43.66857" lon="7.07737">
        <ele>191.9</ele>
        <time>2015-12-11T14:19:39Z</time>
      </trkpt>
      <trkpt lat="43.66845" lon="7.07761">
        <ele>189.69</ele>
        <time>2015-12-11T14:19:43Z</time>
      </trkpt>
      <trkpt lat="43.66834" lon="7.0779">
        <ele>187.18</ele>
        <time>2015-12-11T14:19:47Z</time>
      </trkpt>
      <trkpt lat="43.66823" lon="7.07815">
        <ele>185.16</ele>
        <time>2015-12-11T14:19:50Z</time>
      </trkpt>
      <trkpt lat="43.66811" lon="7.07842">
        <ele>183.06</ele>
        <time>2015-12-11T14:19:53Z</time>
      </trkpt>
      <trkpt lat="43.66802" lon="7.07868">
        <ele>180.84</ele>
        <time>2015-12-11T14:19:56Z</time>
      </trkpt>
      <trkpt lat="43.66795" lon="7.07893">
        <ele>178.93</ele>
        <time>2015-12-11T14:19:59Z</time>
      </trkpt>
      <trkpt lat="43.6679" lon="7.07918">
        <ele>178.08</ele>
        <time>2015-12-11T14:20:02Z</time>
      </trkpt>
      <trkpt lat="43.66793" lon="7.0795">
        <ele>178.76</ele>
        <time>2015-12-11T14:20:06Z</time>
      </trkpt>
      <trkpt lat="43.66797" lon="7.07982">
        <ele>178.53</ele>
        <time>2015-12-11T14:20:10Z</time>
      </trkpt>
      <trkpt lat="43.66802" lon="7.08009">
        <ele>178.85</ele>
        <time>2015-12-11T14:20:14Z</time>
      </trkpt>
      <trkpt lat="43.66809" lon="7.08042">
        <ele>179.44</ele>
        <time>2015-12-11T14:20:18Z</time>
      </trkpt>
      <trkpt lat="43.66817" lon="7.08072">
        <ele>177.77</ele>
        <time>2015-12-11T14:20:21Z</time>
      </trkpt>
      <trkpt lat="43.66823" lon="7.08107">
        <ele>175.38</ele>
        <time>2015-12-11T14:20:24Z</time>
      </trkpt>
      <trkpt lat="43.66827" lon="7.08141">
        <ele>172.83</ele>
        <time>2015-12-11T14:20:27Z</time>
      </trkpt>
      <trkpt lat="43.6683" lon="7.08172">
        <ele>171.92</ele>
        <time>2015-12-11T14:20:30Z</time>
      </trkpt>
      <trkpt lat="43.66832" lon="7.08199">
        <ele>172.56</ele>
        <time>2015-12-11T14:20:33Z</time>
      </trkpt>
      <trkpt lat="43.66836" lon="7.08231">
        <ele>173.75</ele>
        <time>2015-12-11T14:20:37Z</time>
      </trkpt>
      <trkpt lat="43.66843" lon="7.08255">
        <ele>173.41</ele>
        <time>2015-12-11T14:20:41Z</time>
      </trkpt>
      <trkpt lat="43.66849" lon="7.08279">
        <ele>174.6</ele>
        <time>2015-12-11T14:20:46Z</time>
      </trkpt>
      <trkpt lat="43.66851" lon="7.08308">
        <ele>175.84</ele>
        <time>2015-12-11T14:20:54Z</time>
      </trkpt>
      <trkpt lat="43.66853" lon="7.08337">
        <ele>177.77</ele>
        <time>2015-12-11T14:21:00Z</time>
      </trkpt>
      <trkpt lat="43.66859" lon="7.08369">
        <ele>177.19</ele>
        <time>2015-12-11T14:21:04Z</time>
      </trkpt>
      <trkpt lat="43.66868" lon="7.08392">
        <ele>172.12</ele>
        <time>2015-12-11T14:21:09Z</time>
      </trkpt>
      <trkpt lat="43.66877" lon="7.08415">
        <ele>168.06</ele>
        <time>2015-12-11T14:21:16Z</time>
      </trkpt>
      <trkpt lat="43.66887" lon="7.08438">
        <ele>167.12</ele>
        <time>2015-12-11T14:21:22Z</time>
      </trkpt>
      <trkpt lat="43.6689" lon="7.08466">
        <ele>165.26</ele>
        <time>2015-12-11T14:21:29Z</time>
      </trkpt>
      <trkpt lat="43.66887" lon="7.08492">
        <ele>163.75</ele>
        <time>2015-12-11T14:21:34Z</time>
      </trkpt>
      <trkpt lat="43.6689" lon="7.08518">
        <ele>162.42</ele>
        <time>2015-12-11T14:21:39Z</time>
      </trkpt>
      <trkpt lat="43.66897" lon="7.08545">
        <ele>158.41</ele>
        <time>2015-12-11T14:21:44Z</time>
      </trkpt>
      <trkpt lat="43.669" lon="7.0857">
        <ele>156.39</ele>
        <time>2015-12-11T14:21:49Z</time>
      </trkpt>
      <trkpt lat="43.66902" lon="7.08598">
        <ele>154.45</ele>
        <time>2015-12-11T14:21:53Z</time>
      </trkpt>
      <trkpt lat="43.66901" lon="7.08623">
        <ele>154.54</ele>
        <time>2015-12-11T14:22:25Z</time>
      </trkpt>
      <trkpt lat="43.669" lon="7.08651">
        <ele>155.81</ele>
        <time>2015-12-11T14:22:32Z</time>
      </trkpt>
      <trkpt lat="43.66897" lon="7.08675">
        <ele>157.1</ele>
        <time>2015-12-11T14:22:42Z</time>
      </trkpt>
      <trkpt lat="43.66899" lon="7.08702">
        <ele>158.35</ele>
        <time>2015-12-11T14:22:55Z</time>
      </trkpt>
      <trkpt lat="43.66901" lon="7.08727">
        <ele>159.04</ele>
        <time>2015-12-11T14:23:04Z</time>
      </trkpt>
      <trkpt lat="43.66904" lon="7.08755">
        <ele>159</ele>
        <time>2015-12-11T14:23:13Z</time>
      </trkpt>
      <trkpt lat="43.66905" lon="7.08782">
        <ele>158.73</ele>
        <time>2015-12-11T14:23:19Z</time>
      </trkpt>
      <trkpt lat="43.669" lon="7.0881">
        <ele>158.43</ele>
        <time>2015-12-11T14:23:25Z</time>
      </trkpt>
      <trkpt lat="43.66895" lon="7.08835">
        <ele>157.72</ele>
        <time>2015-12-11T14:23:30Z</time>
      </trkpt>
      <trkpt lat="43.66889" lon="7.08865">
        <ele>152.54</ele>
        <time>2015-12-11T14:23:34Z</time>
      </trkpt>
      <trkpt lat="43.66883" lon="7.08889">
        <ele>148.88</ele>
        <time>2015-12-11T14:23:37Z</time>
      </trkpt>
      <trkpt lat="43.66876" lon="7.08918">
        <ele>144.08</ele>
        <time>2015-12-11T14:23:41Z</time>
      </trkpt>
      <trkpt lat="43.66864" lon="7.08941">
        <ele>140.84</ele>
        <time>2015-12-11T14:23:46Z</time>
      </trkpt>
      <trkpt lat="43.66851" lon="7.08962">
        <ele>139.7</ele>
        <time>2015-12-11T14:23:52Z</time>
      </trkpt>
      <trkpt lat="43.66853" lon="7.08987">
        <ele>138.67</ele>
        <time>2015-12-11T14:24:04Z</time>
      </trkpt>
      <trkpt lat="43.66848" lon="7.09012">
        <ele>138.99</ele>
        <time>2015-12-11T14:24:45Z</time>
      </trkpt>
      <trkpt lat="43.66834" lon="7.09029">
        <ele>138.58</ele>
        <time>2015-12-11T14:25:01Z</time>
      </trkpt>
      <trkpt lat="43.66828" lon="7.09052">
        <ele>139.93</ele>
        <time>2015-12-11T14:25:12Z</time>
      </trkpt>
      <trkpt lat="43.6682" lon="7.09078">
        <ele>140.68</ele>
        <time>2015-12-11T14:25:24Z</time>
      </trkpt>
      <trkpt lat="43.66813" lon="7.09102">
        <ele>141.71</ele>
        <time>2015-12-11T14:25:32Z</time>
      </trkpt>
      <trkpt lat="43.66806" lon="7.09127">
        <ele>142.92</ele>
        <time>2015-12-11T14:25:41Z</time>
      </trkpt>
      <trkpt lat="43.66805" lon="7.09152">
        <ele>142.51</ele>
        <time>2015-12-11T14:25:50Z</time>
      </trkpt>
      <trkpt lat="43.66789" lon="7.09166">
        <ele>141.19</ele>
        <time>2015-12-11T14:26:00Z</time>
      </trkpt>
      <trkpt lat="43.66773" lon="7.09178">
        <ele>139.8</ele>
        <time>2015-12-11T14:26:09Z</time>
      </trkpt>
      <trkpt lat="43.66754" lon="7.09174">
        <ele>137.74</ele>
        <time>2015-12-11T14:26:29Z</time>
      </trkpt>
      <trkpt lat="43.66735" lon="7.09178">
        <ele>137.56</ele>
        <time>2015-12-11T14:26:46Z</time>
      </trkpt>
      <trkpt lat="43.6672" lon="7.09196">
        <ele>135.02</ele>
        <time>2015-12-11T14:27:10Z</time>
      </trkpt>
      <trkpt lat="43.66703" lon="7.09205">
        <ele>133.72</ele>
        <time>2015-12-11T14:27:19Z</time>
      </trkpt>
      <trkpt lat="43.66688" lon="7.09222">
        <ele>131.24</ele>
        <time>2015-12-11T14:27:29Z</time>
      </trkpt>
      <trkpt lat="43.66686" lon="7.09247">
        <ele>129.02</ele>
        <time>2015-12-11T14:28:00Z</time>
      </trkpt>
      <trkpt lat="43.66673" lon="7.09265">
        <ele>123.26</ele>
        <time>2015-12-11T14:28:24Z</time>
      </trkpt>
      <trkpt lat="43.66688" lon="7.09283">
        <ele>119.74</ele>
        <time>2015-12-11T14:28:44Z</time>
      </trkpt>
      <trkpt lat="43.66707" lon="7.09286">
        <ele>118.21</ele>
        <time>2015-12-11T14:28:53Z</time>
      </trkpt>
      <trkpt lat="43.66725" lon="7.09289">
        <ele>117.26</ele>
        <time>2015-12-11T14:29:01Z</time>
      </trkpt>
      <trkpt lat="43.66745" lon="7.09296">
        <ele>116.85</ele>
        <time>2015-12-11T14:29:09Z</time>
      </trkpt>
      <trkpt lat="43.66763" lon="7.09305">
        <ele>116.8</ele>
        <time>2015-12-11T14:29:15Z</time>
      </trkpt>
      <trkpt lat="43.66783" lon="7.09315">
        <ele>116.64</ele>
        <time>2015-12-11T14:29:21Z</time>
      </trkpt>
      <trkpt lat="43.668" lon="7.09325">
        <ele>116.45</ele>
        <time>2015-12-11T14:29:26Z</time>
      </trkpt>
      <trkpt lat="43.66819" lon="7.09338">
        <ele>115.9</ele>
        <time>2015-12-11T14:29:32Z</time>
      </trkpt>
      <trkpt lat="43.66837" lon="7.0934">
        <ele>115.8</ele>
        <time>2015-12-11T14:29:59Z</time>
      </trkpt>
      <trkpt lat="43.66838" lon="7.09365">
        <ele>114.9</ele>
        <time>2015-12-11T14:30:06Z</time>
      </trkpt>
      <trkpt lat="43.66832" lon="7.0939">
        <ele>113.96</ele>
        <time>2015-12-11T14:30:13Z</time>
      </trkpt>
      <trkpt lat="43.66835" lon="7.09418">
        <ele>112.82</ele>
        <time>2015-12-11T14:30:21Z</time>
      </trkpt>
      <trkpt lat="43.66828" lon="7.09444">
        <ele>111.58</ele>
        <time>2015-12-11T14:30:28Z</time>
      </trkpt>
      <trkpt lat="43.6682" lon="7.09469">
        <ele>110.11</ele>
        <time>2015-12-11T14:30:35Z</time>
      </trkpt>
      <trkpt lat="43.66805" lon="7.09487">
        <ele>108.37</ele>
        <time>2015-12-11T14:30:42Z</time>
      </trkpt>
      <trkpt lat="43.66787" lon="7.09497">
        <ele>106.44</ele>
        <time>2015-12-11T14:30:50Z</time>
      </trkpt>
      <trkpt lat="43.66773" lon="7.09515">
        <ele>105.02</ele>
        <time>2015-12-11T14:30:59Z</time>
      </trkpt>
      <trkpt lat="43.66768" lon="7.09542">
        <ele>103.61</ele>
        <time>2015-12-11T14:31:08Z</time>
      </trkpt>
      <trkpt lat="43.6676" lon="7.09567">
        <ele>102.7</ele>
        <time>2015-12-11T14:31:15Z</time>
      </trkpt>
      <trkpt lat="43.66752" lon="7.09592">
        <ele>102.17</ele>
        <time>2015-12-11T14:31:23Z</time>
      </trkpt>
      <trkpt lat="43.66748" lon="7.0962">
        <ele>101.89</ele>
        <time>2015-12-11T14:31:31Z</time>
      </trkpt>
      <trkpt lat="43.66749" lon="7.09647">
        <ele>101.35</ele>
        <time>2015-12-11T14:31:35Z</time>
      </trkpt>
      <trkpt lat="43.66744" lon="7.09673">
        <ele>96.57</ele>
        <time>2015-12-11T14:31:39Z</time>
      </trkpt>
      <trkpt lat="43.66733" lon="7.09693">
        <ele>93.73</ele>
        <time>2015-12-11T14:31:43Z</time>
      </trkpt>
      <trkpt lat="43.66719" lon="7.0971">
        <ele>90.63</ele>
        <time>2015-12-11T14:31:47Z</time>
      </trkpt>
      <trkpt lat="43.66709" lon="7.09731">
        <ele>89.62</ele>
        <time>2015-12-11T14:31:52Z</time>
      </trkpt>
      <trkpt lat="43.66699" lon="7.09756">
        <ele>86.47</ele>
        <time>2015-12-11T14:31:57Z</time>
      </trkpt>
      <trkpt lat="43.66694" lon="7.09782">
        <ele>83.73</ele>
        <time>2015-12-11T14:32:01Z</time>
      </trkpt>
      <trkpt lat="43.66692" lon="7.0981">
        <ele>80.49</ele>
        <time>2015-12-11T14:32:06Z</time>
      </trkpt>
      <trkpt lat="43.66681" lon="7.0983">
        <ele>80.26</ele>
        <time>2015-12-11T14:32:12Z</time>
      </trkpt>
      <trkpt lat="43.66692" lon="7.0985">
        <ele>80.26</ele>
        <time>2015-12-11T14:32:20Z</time>
      </trkpt>
      <trkpt lat="43.66688" lon="7.09875">
        <ele>80.78</ele>
        <time>2015-12-11T14:32:27Z</time>
      </trkpt>
      <trkpt lat="43.66671" lon="7.09892">
        <ele>81.41</ele>
        <time>2015-12-11T14:32:38Z</time>
      </trkpt>
      <trkpt lat="43.66659" lon="7.09912">
        <ele>81.61</ele>
        <time>2015-12-11T14:32:43Z</time>
      </trkpt>
      <trkpt lat="43.6665" lon="7.09936">
        <ele>81.35</ele>
        <time>2015-12-11T14:32:49Z</time>
      </trkpt>
      <trkpt lat="43.66653" lon="7.09962">
        <ele>80.36</ele>
        <time>2015-12-11T14:32:55Z</time>
      </trkpt>
      <trkpt lat="43.66646" lon="7.09987">
        <ele>78.03</ele>
        <time>2015-12-11T14:33:07Z</time>
      </trkpt>
      <trkpt lat="43.6664" lon="7.10011">
        <ele>76.9</ele>
        <time>2015-12-11T14:33:15Z</time>
      </trkpt>
      <trkpt lat="43.66631" lon="7.10035">
        <ele>76.06</ele>
        <time>2015-12-11T14:33:23Z</time>
      </trkpt>
      <trkpt lat="43.66624" lon="7.10058">
        <ele>71.32</ele>
        <time>2015-12-11T14:33:53Z</time>
      </trkpt>
      <trkpt lat="43.66633" lon="7.1008">
        <ele>69.43</ele>
        <time>2015-12-11T14:34:05Z</time>
      </trkpt>
      <trkpt lat="43.66646" lon="7.10098">
        <ele>65.12</ele>
        <time>2015-12-11T14:34:16Z</time>
      </trkpt>
      <trkpt lat="43.66662" lon="7.1011">
        <ele>62.94</ele>
        <time>2015-12-11T14:34:25Z</time>
      </trkpt>
      <trkpt lat="43.66676" lon="7.10126">
        <ele>59.18</ele>
        <time>2015-12-11T14:34:55Z</time>
      </trkpt>
      <trkpt lat="43.66686" lon="7.10147">
        <ele>57.25</ele>
        <time>2015-12-11T14:35:09Z</time>
      </trkpt>
      <trkpt lat="43.66696" lon="7.10171">
        <ele>56.39</ele>
        <time>2015-12-11T14:35:18Z</time>
      </trkpt>
      <trkpt lat="43.66708" lon="7.1019">
        <ele>54.61</ele>
        <time>2015-12-11T14:35:28Z</time>
      </trkpt>
      <trkpt lat="43.66721" lon="7.10208">
        <ele>50.81</ele>
        <time>2015-12-11T14:35:43Z</time>
      </trkpt>
      <trkpt lat="43.66733" lon="7.10226">
        <ele>46.61</ele>
        <time>2015-12-11T14:36:03Z</time>
      </trkpt>
      <trkpt lat="43.66743" lon="7.10248">
        <ele>44.34</ele>
        <time>2015-12-11T14:36:25Z</time>
      </trkpt>
      <trkpt lat="43.66755" lon="7.10267">
        <ele>43.52</ele>
        <time>2015-12-11T14:36:39Z</time>
      </trkpt>
      <trkpt lat="43.66767" lon="7.10287">
        <ele>40.64</ele>
        <time>2015-12-11T14:36:55Z</time>
      </trkpt>
      <trkpt lat="43.66782" lon="7.10305">
        <ele>37.94</ele>
        <time>2015-12-11T14:37:07Z</time>
      </trkpt>
      <trkpt lat="43.66796" lon="7.10325">
        <ele>34.73</ele>
        <time>2015-12-11T14:37:23Z</time>
      </trkpt>
      <trkpt lat="43.66808" lon="7.10348">
        <ele>32.83</ele>
        <time>2015-12-11T14:37:36Z</time>
      </trkpt>
      <trkpt lat="43.66814" lon="7.10372">
        <ele>29.12</ele>
        <time>2015-12-11T14:38:03Z</time>
      </trkpt>
      <trkpt lat="43.66822" lon="7.10397">
        <ele>27.56</ele>
        <time>2015-12-11T14:38:22Z</time>
      </trkpt>
      <trkpt lat="43.66839" lon="7.1041">
        <ele>19.82</ele>
        <time>2015-12-11T14:39:23Z</time>
      </trkpt>
      <trkpt lat="43.66859" lon="7.10405">
        <ele>18.02</ele>
        <time>2015-12-11T14:39:28Z</time>
      </trkpt>
      <trkpt lat="43.6688" lon="7.10405">
        <ele>16.7</ele>
        <time>2015-12-11T14:39:34Z</time>
      </trkpt>
      <trkpt lat="43.66897" lon="7.10412">
        <ele>16.45</ele>
        <time>2015-12-11T14:39:40Z</time>
      </trkpt>
      <trkpt lat="43.66914" lon="7.10424">
        <ele>16.46</ele>
        <time>2015-12-11T14:39:48Z</time>
      </trkpt>
      <trkpt lat="43.66931" lon="7.1043">
        <ele>17.34</ele>
        <time>2015-12-11T14:39:56Z</time>
      </trkpt>
      <trkpt lat="43.66942" lon="7.10452">
        <ele>17.65</ele>
        <time>2015-12-11T14:40:07Z</time>
      </trkpt>
      <trkpt lat="43.66942" lon="7.10477">
        <ele>17.32</ele>
        <time>2015-12-11T14:40:13Z</time>
      </trkpt>
      <trkpt lat="43.66933" lon="7.10502">
        <ele>17.26</ele>
        <time>2015-12-11T14:40:19Z</time>
      </trkpt>
      <trkpt lat="43.66923" lon="7.10531">
        <ele>18.09</ele>
        <time>2015-12-11T14:40:26Z</time>
      </trkpt>
      <trkpt lat="43.66916" lon="7.10554">
        <ele>17.95</ele>
        <time>2015-12-11T14:40:30Z</time>
      </trkpt>
      <trkpt lat="43.66906" lon="7.10578">
        <ele>15.46</ele>
        <time>2015-12-11T14:40:34Z</time>
      </trkpt>
      <trkpt lat="43.66899" lon="7.10601">
        <ele>13.65</ele>
        <time>2015-12-11T14:40:38Z</time>
      </trkpt>
      <trkpt lat="43.66893" lon="7.10628">
        <ele>11.38</ele>
        <time>2015-12-11T14:40:42Z</time>
      </trkpt>
      <trkpt lat="43.66887" lon="7.10654">
        <ele>9.14</ele>
        <time>2015-12-11T14:40:46Z</time>
      </trkpt>
      <trkpt lat="43.66881" lon="7.10679">
        <ele>8.85</ele>
        <time>2015-12-11T14:40:50Z</time>
      </trkpt>
      <trkpt lat="43.66874" lon="7.10706">
        <ele>7.99</ele>
        <time>2015-12-11T14:40:54Z</time>
      </trkpt>
      <trkpt lat="43.66866" lon="7.10733">
        <ele>6.84</ele>
        <time>2015-12-11T14:40:58Z</time>
      </trkpt>
      <trkpt lat="43.66859" lon="7.10759">
        <ele>6.34</ele>
        <time>2015-12-11T14:41:02Z</time>
      </trkpt>
      <trkpt lat="43.66853" lon="7.10784">
        <ele>6.48</ele>
        <time>2015-12-11T14:41:06Z</time>
      </trkpt>
      <trkpt lat="43.66848" lon="7.10809">
        <ele>7.28</ele>
        <time>2015-12-11T14:41:10Z</time>
      </trkpt>
      <trkpt lat="43.66845" lon="7.10836">
        <ele>7.89</ele>
        <time>2015-12-11T14:41:14Z</time>
      </trkpt>
      <trkpt lat="43.66839" lon="7.1086">
        <ele>7.79</ele>
        <time>2015-12-11T14:41:18Z</time>
      </trkpt>
      <trkpt lat="43.66831" lon="7.10883">
        <ele>7.48</ele>
        <time>2015-12-11T14:41:22Z</time>
      </trkpt>
      <trkpt lat="43.66823" lon="7.10907">
        <ele>7.7</ele>
        <time>2015-12-11T14:41:26Z</time>
      </trkpt>
      <trkpt lat="43.66818" lon="7.10933">
        <ele>8.94</ele>
        <time>2015-12-11T14:41:30Z</time>
      </trkpt>
      <trkpt lat="43.66813" lon="7.10957">
        <ele>10.95</ele>
        <time>2015-12-11T14:41:34Z</time>
      </trkpt>
      <trkpt lat="43.668" lon="7.10979">
        <ele>12.52</ele>
        <time>2015-12-11T14:41:39Z</time>
      </trkpt>
      <trkpt lat="43.66786" lon="7.11001">
        <ele>10.83</ele>
        <time>2015-12-11T14:41:44Z</time>
      </trkpt>
      <trkpt lat="43.66793" lon="7.1103">
        <ele>8.56</ele>
        <time>2015-12-11T14:41:49Z</time>
      </trkpt>
      <trkpt lat="43.66795" lon="7.11057">
        <ele>6.97</ele>
        <time>2015-12-11T14:41:53Z</time>
      </trkpt>
      <trkpt lat="43.66784" lon="7.11083">
        <ele>5.53</ele>
        <time>2015-12-11T14:41:57Z</time>
      </trkpt>
      <trkpt lat="43.66769" lon="7.11107">
        <ele>4.63</ele>
        <time>2015-12-11T14:42:01Z</time>
      </trkpt>
      <trkpt lat="43.66754" lon="7.11121">
        <ele>5.39</ele>
        <time>2015-12-11T14:42:04Z</time>
      </trkpt>
      <trkpt lat="43.66737" lon="7.11134">
        <ele>7.24</ele>
        <time>2015-12-11T14:42:07Z</time>
      </trkpt>
      <trkpt lat="43.66719" lon="7.11153">
        <ele>7.82</ele>
        <time>2015-12-11T14:42:11Z</time>
      </trkpt>
      <trkpt lat="43.667" lon="7.11173">
        <ele>7.22</ele>
        <time>2015-12-11T14:42:15Z</time>
      </trkpt>
      <trkpt lat="43.66679" lon="7.11179">
        <ele>5.1</ele>
        <time>2015-12-11T14:42:19Z</time>
      </trkpt>
      <trkpt lat="43.66657" lon="7.11186">
        <ele>2.97</ele>
        <time>2015-12-11T14:42:23Z</time>
      </trkpt>
      <trkpt lat="43.66637" lon="7.11189">
        <ele>3.17</ele>
        <time>2015-12-11T14:42:40Z</time>
      </trkpt>
      <trkpt lat="43.66618" lon="7.11195">
        <ele>5.13</ele>
        <time>2015-12-11T14:42:48Z</time>
      </trkpt>
      <trkpt lat="43.66598" lon="7.11209">
        <ele>6.21</ele>
        <time>2015-12-11T14:42:55Z</time>
      </trkpt>
      <trkpt lat="43.66581" lon="7.11224">
        <ele>6.3</ele>
        <time>2015-12-11T14:43:01Z</time>
      </trkpt>
      <trkpt lat="43.66563" lon="7.11236">
        <ele>6.22</ele>
        <time>2015-12-11T14:43:07Z</time>
      </trkpt>
      <trkpt lat="43.66546" lon="7.11248">
        <ele>6.15</ele>
        <time>2015-12-11T14:43:14Z</time>
      </trkpt>
      <trkpt lat="43.66528" lon="7.11257">
        <ele>6.23</ele>
        <time>2015-12-11T14:43:21Z</time>
      </trkpt>
      <trkpt lat="43.66511" lon="7.11242">
        <ele>6.21</ele>
        <time>2015-12-11T14:43:28Z</time>
      </trkpt>
      <trkpt lat="43.66495" lon="7.11224">
        <ele>6.18</ele>
        <time>2015-12-11T14:43:37Z</time>
      </trkpt>
      <trkpt lat="43.66476" lon="7.11232">
        <ele>6.52</ele>
        <time>2015-12-11T14:43:43Z</time>
      </trkpt>
      <trkpt lat="43.66459" lon="7.11245">
        <ele>7.26</ele>
        <time>2015-12-11T14:43:50Z</time>
      </trkpt>
      <trkpt lat="43.66447" lon="7.11264">
        <ele>7.26</ele>
        <time>2015-12-11T14:43:56Z</time>
      </trkpt>
      <trkpt lat="43.6643" lon="7.11277">
        <ele>7.24</ele>
        <time>2015-12-11T14:44:02Z</time>
      </trkpt>
      <trkpt lat="43.6641" lon="7.11285">
        <ele>6.6</ele>
        <time>2015-12-11T14:44:07Z</time>
      </trkpt>
      <trkpt lat="43.66393" lon="7.11298">
        <ele>6.42</ele>
        <time>2015-12-11T14:44:12Z</time>
      </trkpt>
      <trkpt lat="43.66377" lon="7.11315">
        <ele>6.25</ele>
        <time>2015-12-11T14:44:17Z</time>
      </trkpt>
      <trkpt lat="43.66354" lon="7.11325">
        <ele>5.62</ele>
        <time>2015-12-11T14:44:22Z</time>
      </trkpt>
      <trkpt lat="43.66336" lon="7.11333">
        <ele>4.4</ele>
        <time>2015-12-11T14:44:26Z</time>
      </trkpt>
      <trkpt lat="43.66317" lon="7.11344">
        <ele>4.48</ele>
        <time>2015-12-11T14:44:30Z</time>
      </trkpt>
      <trkpt lat="43.66299" lon="7.11351">
        <ele>5.17</ele>
        <time>2015-12-11T14:44:34Z</time>
      </trkpt>
      <trkpt lat="43.66281" lon="7.11353">
        <ele>5.29</ele>
        <time>2015-12-11T14:44:38Z</time>
      </trkpt>
      <trkpt lat="43.66259" lon="7.11356">
        <ele>4.88</ele>
        <time>2015-12-11T14:44:43Z</time>
      </trkpt>
      <trkpt lat="43.6624" lon="7.1136">
        <ele>4.68</ele>
        <time>2015-12-11T14:44:47Z</time>
      </trkpt>
      <trkpt lat="43.66222" lon="7.11368">
        <ele>6.26</ele>
        <time>2015-12-11T14:44:51Z</time>
      </trkpt>
      <trkpt lat="43.66203" lon="7.11378">
        <ele>8.38</ele>
        <time>2015-12-11T14:44:55Z</time>
      </trkpt>
      <trkpt lat="43.66183" lon="7.11392">
        <ele>8.72</ele>
        <time>2015-12-11T14:45:00Z</time>
      </trkpt>
      <trkpt lat="43.66165" lon="7.11404">
        <ele>9.44</ele>
        <time>2015-12-11T14:45:05Z</time>
      </trkpt>
      <trkpt lat="43.6615" lon="7.1142">
        <ele>9.49</ele>
        <time>2015-12-11T14:45:09Z</time>
      </trkpt>
      <trkpt lat="43.66134" lon="7.11435">
        <ele>9.6</ele>
        <time>2015-12-11T14:45:13Z</time>
      </trkpt>
      <trkpt lat="43.66114" lon="7.11451">
        <ele>12.71</ele>
        <time>2015-12-11T14:45:18Z</time>
      </trkpt>
      <trkpt lat="43.66095" lon="7.11466">
        <ele>13.94</ele>
        <time>2015-12-11T14:45:22Z</time>
      </trkpt>
      <trkpt lat="43.6608" lon="7.11485">
        <ele>13.06</ele>
        <time>2015-12-11T14:45:26Z</time>
      </trkpt>
      <trkpt lat="43.66067" lon="7.11504">
        <ele>10.16</ele>
        <time>2015-12-11T14:45:30Z</time>
      </trkpt>
      <trkpt lat="43.66057" lon="7.11526">
        <ele>7.95</ele>
        <time>2015-12-11T14:45:34Z</time>
      </trkpt>
      <trkpt lat="43.66051" lon="7.11551">
        <ele>8.11</ele>
        <time>2015-12-11T14:45:39Z</time>
      </trkpt>
      <trkpt lat="43.66042" lon="7.11576">
        <ele>7.82</ele>
        <time>2015-12-11T14:45:43Z</time>
      </trkpt>
      <trkpt lat="43.66031" lon="7.116">
        <ele>8.17</ele>
        <time>2015-12-11T14:45:47Z</time>
      </trkpt>
      <trkpt lat="43.66024" lon="7.11625">
        <ele>8.45</ele>
        <time>2015-12-11T14:45:51Z</time>
      </trkpt>
      <trkpt lat="43.66017" lon="7.1165">
        <ele>9.3</ele>
        <time>2015-12-11T14:45:55Z</time>
      </trkpt>
      <trkpt lat="43.66006" lon="7.11672">
        <ele>7.77</ele>
        <time>2015-12-11T14:45:59Z</time>
      </trkpt>
      <trkpt lat="43.65997" lon="7.11697">
        <ele>3.8</ele>
        <time>2015-12-11T14:46:04Z</time>
      </trkpt>
      <trkpt lat="43.65988" lon="7.11721">
        <ele>0.82</ele>
        <time>2015-12-11T14:46:08Z</time>
      </trkpt>
      <trkpt lat="43.65977" lon="7.11749">
        <ele>-0.84</ele>
        <time>2015-12-11T14:46:13Z</time>
      </trkpt>
      <trkpt lat="43.65967" lon="7.11773">
        <ele>-0.67</ele>
        <time>2015-12-11T14:46:17Z</time>
      </trkpt>
      <trkpt lat="43.65955" lon="7.11797">
        <ele>3.63</ele>
        <time>2015-12-11T14:46:21Z</time>
      </trkpt>
      <trkpt lat="43.65944" lon="7.11816">
        <ele>7.59</ele>
        <time>2015-12-11T14:46:25Z</time>
      </trkpt>
      <trkpt lat="43.65935" lon="7.1184">
        <ele>8.64</ele>
        <time>2015-12-11T14:46:29Z</time>
      </trkpt>
      <trkpt lat="43.65924" lon="7.11866">
        <ele>8.58</ele>
        <time>2015-12-11T14:46:34Z</time>
      </trkpt>
      <trkpt lat="43.65913" lon="7.11889">
        <ele>7.11</ele>
        <time>2015-12-11T14:46:38Z</time>
      </trkpt>
      <trkpt lat="43.65898" lon="7.11909">
        <ele>3.41</ele>
        <time>2015-12-11T14:46:42Z</time>
      </trkpt>
      <trkpt lat="43.65881" lon="7.11924">
        <ele>-0.65</ele>
        <time>2015-12-11T14:46:46Z</time>
      </trkpt>
      <trkpt lat="43.65867" lon="7.11941">
        <ele>-4.29</ele>
        <time>2015-12-11T14:46:51Z</time>
      </trkpt>
      <trkpt lat="43.65855" lon="7.11962">
        <ele>-3.59</ele>
        <time>2015-12-11T14:46:55Z</time>
      </trkpt>
      <trkpt lat="43.6584" lon="7.11978">
        <ele>-3.4</ele>
        <time>2015-12-11T14:47:00Z</time>
      </trkpt>
      <trkpt lat="43.65825" lon="7.11996">
        <ele>-1.75</ele>
        <time>2015-12-11T14:47:04Z</time>
      </trkpt>
      <trkpt lat="43.65809" lon="7.12009">
        <ele>-0.29</ele>
        <time>2015-12-11T14:47:08Z</time>
      </trkpt>
      <trkpt lat="43.65793" lon="7.12021">
        <ele>3.73</ele>
        <time>2015-12-11T14:47:13Z</time>
      </trkpt>
      <trkpt lat="43.65776" lon="7.12031">
        <ele>5.53</ele>
        <time>2015-12-11T14:47:18Z</time>
      </trkpt>
      <trkpt lat="43.65766" lon="7.12009">
        <ele>5.82</ele>
        <time>2015-12-11T14:47:37Z</time>
      </trkpt>
      <trkpt lat="43.65765" lon="7.11983">
        <ele>8.9</ele>
        <time>2015-12-11T14:47:57Z</time>
      </trkpt>
    </trkseg>
  </trk>
</gpx>